PWSweather.com
Personal Weather Stations
Station Observations
KNJEWING3
Ewing, NJ 08638

Ewing, NJ 08638

Lat: 40.25193, Lon: -74.77511

Elevation: 106

Station Type: Oregon Scientific WMR968 / SRS100 Solar Radiation Shield. Rain Data At www.cocorahs.org (NJ-MC-11)

Latest ConditionsUpdated 2:18:20 PM EST Sunday, Mar 1, 2015
Currently Today's Max Today's Min Today's Average
Temperature 24.3°F-4.3°C 27.2°F-2.7°C 12.8°F-10.7°C 20.1°F-6.6°C
Dew Point 8.8°F-12.9°C 8.8°F-12.9°C -3.3°F-19.6°C 2.7°F-16.3°C
Winds Calm Calm 12.1 mph SW19.5 kmh SW - 1.1 mph 1.8 kmh
Wind Gusts -- 14.8 mph23.8 kmh - -
Humidity 51% 51% 44% 46%
Pressure 30.56 in1034.9 mb 30.83 in1044.0 mb 30.56 in1034.9 mb -
Hour Temp Dew Point Humidity Winds Wind Gusts Pressure Precip Precip Rate Daily Precip Total
02:18 PM 24.3°F-4.3°C 8.8°F-12.9°C 51% Calm Calm -- 30.56 in1034.9 mb 0.00 in0.0 mm 0.00 in/hr0.0 mm/hr 0.00 in0.0 mm
02:16 PM 24.3°F-4.3°C 8.8°F-12.9°C 51% Calm Calm -- 30.56 in1034.9 mb 0.00 in0.0 mm 0.00 in/hr0.0 mm/hr 0.00 in0.0 mm
02:15 PM 24.2°F-4.3°C 8.2°F-13.2°C 50% Calm Calm -- 30.56 in1034.9 mb 0.00 in0.0 mm 0.00 in/hr0.0 mm/hr 0.00 in0.0 mm
02:14 PM 24.2°F-4.3°C 8.2°F-13.2°C 50% Calm Calm -- 30.56 in1034.9 mb 0.00 in0.0 mm 0.00 in/hr0.0 mm/hr 0.00 in0.0 mm
02:13 PM 24.2°F-4.3°C 8.2°F-13.2°C 50% Calm Calm -- 30.56 in1034.9 mb 0.00 in0.0 mm 0.00 in/hr0.0 mm/hr 0.00 in0.0 mm
02:12 PM 24.2°F-4.3°C 8.2°F-13.2°C 50% Calm Calm -- 30.56 in1034.9 mb 0.00 in0.0 mm 0.00 in/hr0.0 mm/hr 0.00 in0.0 mm
02:11 PM 24.2°F-4.3°C 8.2°F-13.2°C 50% Calm Calm -- 30.56 in1034.9 mb 0.00 in0.0 mm 0.00 in/hr0.0 mm/hr 0.00 in0.0 mm
02:10 PM 24.2°F-4.3°C 8.2°F-13.2°C 50% Calm Calm -- 30.56 in1034.9 mb 0.00 in0.0 mm 0.00 in/hr0.0 mm/hr 0.00 in0.0 mm
02:08 PM 24.2°F-4.3°C 8.2°F-13.2°C 50% Calm Calm -- 30.56 in1034.9 mb 0.00 in0.0 mm 0.00 in/hr0.0 mm/hr 0.00 in0.0 mm
02:07 PM 24.0°F-4.4°C 8.1°F-13.3°C 50% Calm Calm -- 30.56 in1034.9 mb 0.00 in0.0 mm 0.00 in/hr0.0 mm/hr 0.00 in0.0 mm
02:06 PM 24.0°F-4.4°C 8.1°F-13.3°C 50% Calm Calm -- 30.56 in1034.9 mb 0.00 in0.0 mm 0.00 in/hr0.0 mm/hr 0.00 in0.0 mm
02:05 PM 24.0°F-4.4°C 8.1°F-13.3°C 50% Calm Calm -- 30.56 in1034.9 mb 0.00 in0.0 mm 0.00 in/hr0.0 mm/hr 0.00 in0.0 mm
02:04 PM 24.0°F-4.4°C 8.1°F-13.3°C 50% Calm Calm -- 30.56 in1034.9 mb 0.00 in0.0 mm 0.00 in/hr0.0 mm/hr 0.00 in0.0 mm
02:03 PM 24.0°F-4.4°C 8.1°F-13.3°C 50% Calm Calm -- 30.56 in1034.9 mb 0.00 in0.0 mm 0.00 in/hr0.0 mm/hr 0.00 in0.0 mm
02:02 PM 24.0°F-4.4°C 8.1°F-13.3°C 50% Calm Calm -- 30.56 in1034.9 mb 0.00 in0.0 mm 0.00 in/hr0.0 mm/hr 0.00 in0.0 mm
02:01 PM 24.0°F-4.4°C 8.1°F-13.3°C 50% Calm Calm -- 30.56 in1034.9 mb 0.00 in0.0 mm 0.00 in/hr0.0 mm/hr 0.00 in0.0 mm
02:00 PM 23.8°F-4.6°C 7.9°F-13.4°C 50% Calm Calm -- 30.56 in1034.9 mb 0.00 in0.0 mm 0.00 in/hr0.0 mm/hr 0.00 in0.0 mm
01:59 PM 23.8°F-4.6°C 7.9°F-13.4°C 50% Calm Calm -- 30.56 in1034.9 mb 0.00 in0.0 mm 0.00 in/hr0.0 mm/hr 0.00 in0.0 mm
01:58 PM 23.8°F-4.6°C 7.9°F-13.4°C 50% Calm Calm -- 30.56 in1034.9 mb 0.00 in0.0 mm 0.00 in/hr0.0 mm/hr 0.00 in0.0 mm
01:57 PM 23.6°F-4.7°C 7.7°F-13.5°C 50% Calm Calm -- 30.56 in1034.9 mb 0.00 in0.0 mm 0.00 in/hr0.0 mm/hr 0.00 in0.0 mm
01:56 PM 23.6°F-4.7°C 7.7°F-13.5°C 50% Calm Calm -- 30.59 in1035.9 mb 0.00 in0.0 mm 0.00 in/hr0.0 mm/hr 0.00 in0.0 mm
01:55 PM 23.6°F-4.7°C 7.7°F-13.5°C 50% Calm Calm -- 30.59 in1035.9 mb 0.00 in0.0 mm 0.00 in/hr0.0 mm/hr 0.00 in0.0 mm
01:54 PM 23.6°F-4.7°C 7.7°F-13.5°C 50% Calm Calm -- 30.59 in1035.9 mb 0.00 in0.0 mm 0.00 in/hr0.0 mm/hr 0.00 in0.0 mm
01:53 PM 23.6°F-4.7°C 7.7°F-13.5°C 50% Calm Calm -- 30.59 in1035.9 mb 0.00 in0.0 mm 0.00 in/hr0.0 mm/hr 0.00 in0.0 mm
01:52 PM 23.8°F-4.6°C 7.9°F-13.4°C 50% Calm Calm -- 30.59 in1035.9 mb 0.00 in0.0 mm 0.00 in/hr0.0 mm/hr 0.00 in0.0 mm
01:51 PM 23.8°F-4.6°C 7.9°F-13.4°C 50% Calm Calm -- 30.59 in1035.9 mb 0.00 in0.0 mm 0.00 in/hr0.0 mm/hr 0.00 in0.0 mm
01:50 PM 23.8°F-4.6°C 7.9°F-13.4°C 50% Calm Calm -- 30.59 in1035.9 mb 0.00 in0.0 mm 0.00 in/hr0.0 mm/hr 0.00 in0.0 mm
01:49 PM 23.6°F-4.7°C 7.3°F-13.7°C 49% Calm Calm -- 30.59 in1035.9 mb 0.00 in0.0 mm 0.00 in/hr0.0 mm/hr 0.00 in0.0 mm
01:48 PM 23.6°F-4.7°C 7.3°F-13.7°C 49% Calm Calm -- 30.59 in1035.9 mb 0.00 in0.0 mm 0.00 in/hr0.0 mm/hr 0.00 in0.0 mm
01:47 PM 23.6°F-4.7°C 7.3°F-13.7°C 49% Calm Calm -- 30.59 in1035.9 mb 0.00 in0.0 mm 0.00 in/hr0.0 mm/hr 0.00 in0.0 mm
01:46 PM 23.6°F-4.7°C 7.3°F-13.7°C 49% Calm Calm -- 30.59 in1035.9 mb 0.00 in0.0 mm 0.00 in/hr0.0 mm/hr 0.00 in0.0 mm
01:45 PM 23.4°F-4.8°C 7.1°F-13.8°C 49% Calm Calm -- 30.59 in1035.9 mb 0.00 in0.0 mm 0.00 in/hr0.0 mm/hr 0.00 in0.0 mm
01:44 PM 23.4°F-4.8°C 7.1°F-13.8°C 49% Calm Calm 4.3 mph6.9 kmh 30.59 in1035.9 mb 0.00 in0.0 mm 0.00 in/hr0.0 mm/hr 0.00 in0.0 mm
01:43 PM 23.4°F-4.8°C 7.1°F-13.8°C 49% Calm Calm 4.3 mph6.9 kmh 30.59 in1035.9 mb 0.00 in0.0 mm 0.00 in/hr0.0 mm/hr 0.00 in0.0 mm
01:42 PM 23.4°F-4.8°C 7.1°F-13.8°C 49% Calm Calm 4.3 mph6.9 kmh 30.59 in1035.9 mb 0.00 in0.0 mm 0.00 in/hr0.0 mm/hr 0.00 in0.0 mm
01:41 PM 23.4°F-4.8°C 7.1°F-13.8°C 49% Calm Calm 4.3 mph6.9 kmh 30.62 in1036.9 mb 0.00 in0.0 mm 0.00 in/hr0.0 mm/hr 0.00 in0.0 mm
01:40 PM 23.4°F-4.8°C 7.1°F-13.8°C 49% Calm Calm 4.3 mph6.9 kmh 30.62 in1036.9 mb 0.00 in0.0 mm 0.00 in/hr0.0 mm/hr 0.00 in0.0 mm
01:38 PM 23.4°F-4.8°C 7.1°F-13.8°C 49% Calm Calm 4.3 mph6.9 kmh 30.62 in1036.9 mb 0.00 in0.0 mm 0.00 in/hr0.0 mm/hr 0.00 in0.0 mm
01:37 PM 23.4°F-4.8°C 6.7°F-14.1°C 48% Calm Calm 4.3 mph6.9 kmh 30.62 in1036.9 mb 0.00 in0.0 mm 0.00 in/hr0.0 mm/hr 0.00 in0.0 mm
01:36 PM 23.4°F-4.8°C 6.7°F-14.1°C 48% Calm Calm 4.3 mph6.9 kmh 30.62 in1036.9 mb 0.00 in0.0 mm 0.00 in/hr0.0 mm/hr 0.00 in0.0 mm
01:35 PM 23.4°F-4.8°C 6.7°F-14.1°C 48% 3.8 mph S6.1 kmh S 4.3 mph6.9 kmh 30.62 in1036.9 mb 0.00 in0.0 mm 0.00 in/hr0.0 mm/hr 0.00 in0.0 mm
01:34 PM 23.6°F-4.7°C 6.8°F-14.0°C 48% 4.3 mph S6.9 kmh S 4.3 mph6.9 kmh 30.62 in1036.9 mb 0.00 in0.0 mm 0.00 in/hr0.0 mm/hr 0.00 in0.0 mm
01:33 PM 23.6°F-4.7°C 6.8°F-14.0°C 48% Calm Calm -- 30.62 in1036.9 mb 0.00 in0.0 mm 0.00 in/hr0.0 mm/hr 0.00 in0.0 mm
01:32 PM 23.6°F-4.7°C 6.8°F-14.0°C 48% Calm Calm -- 30.62 in1036.9 mb 0.00 in0.0 mm 0.00 in/hr0.0 mm/hr 0.00 in0.0 mm
01:31 PM 23.6°F-4.7°C 6.8°F-14.0°C 48% Calm Calm -- 30.62 in1036.9 mb 0.00 in0.0 mm 0.00 in/hr0.0 mm/hr 0.00 in0.0 mm
01:30 PM 23.4°F-4.8°C 6.7°F-14.1°C 48% Calm Calm -- 30.62 in1036.9 mb 0.00 in0.0 mm 0.00 in/hr0.0 mm/hr 0.00 in0.0 mm
01:29 PM 23.4°F-4.8°C 6.7°F-14.1°C 48% Calm Calm 4.3 mph6.9 kmh 30.62 in1036.9 mb 0.00 in0.0 mm 0.00 in/hr0.0 mm/hr 0.00 in0.0 mm
01:28 PM 23.4°F-4.8°C 6.7°F-14.1°C 48% Calm Calm 4.3 mph6.9 kmh 30.62 in1036.9 mb 0.00 in0.0 mm 0.00 in/hr0.0 mm/hr 0.00 in0.0 mm
01:27 PM 23.4°F-4.8°C 6.7°F-14.1°C 48% Calm Calm 4.3 mph6.9 kmh 30.62 in1036.9 mb 0.00 in0.0 mm 0.00 in/hr0.0 mm/hr 0.00 in0.0 mm
01:26 PM 23.4°F-4.8°C 6.7°F-14.1°C 48% Calm Calm 4.3 mph6.9 kmh 30.62 in1036.9 mb 0.00 in0.0 mm 0.00 in/hr0.0 mm/hr 0.00 in0.0 mm
01:25 PM 23.4°F-4.8°C 6.7°F-14.1°C 48% Calm Calm 4.3 mph6.9 kmh 30.62 in1036.9 mb 0.00 in0.0 mm 0.00 in/hr0.0 mm/hr 0.00 in0.0 mm
01:24 PM 23.4°F-4.8°C 6.7°F-14.1°C 48% Calm Calm 4.3 mph6.9 kmh 30.62 in1036.9 mb 0.00 in0.0 mm 0.00 in/hr0.0 mm/hr 0.00 in0.0 mm
01:23 PM 23.4°F-4.8°C 6.7°F-14.1°C 48% Calm Calm 4.3 mph6.9 kmh 30.62 in1036.9 mb 0.00 in0.0 mm 0.00 in/hr0.0 mm/hr 0.00 in0.0 mm
01:22 PM 23.6°F-4.7°C 6.8°F-14.0°C 48% Calm Calm 4.3 mph6.9 kmh 30.62 in1036.9 mb 0.00 in0.0 mm 0.00 in/hr0.0 mm/hr 0.00 in0.0 mm
01:21 PM 23.6°F-4.7°C 6.8°F-14.0°C 48% Calm Calm 4.3 mph6.9 kmh 30.62 in1036.9 mb 0.00 in0.0 mm 0.00 in/hr0.0 mm/hr 0.00 in0.0 mm
01:20 PM 23.6°F-4.7°C 6.8°F-14.0°C 48% Calm Calm 4.3 mph6.9 kmh 30.62 in1036.9 mb 0.00 in0.0 mm 0.00 in/hr0.0 mm/hr 0.00 in0.0 mm
01:19 PM 23.6°F-4.7°C 6.8°F-14.0°C 48% Calm Calm 4.3 mph6.9 kmh 30.62 in1036.9 mb 0.00 in0.0 mm 0.00 in/hr0.0 mm/hr 0.00 in0.0 mm
01:18 PM 23.6°F-4.7°C 6.8°F-14.0°C 48% Calm Calm 4.8 mph7.7 kmh 30.62 in1036.9 mb 0.00 in0.0 mm 0.00 in/hr0.0 mm/hr 0.00 in0.0 mm
01:16 PM 23.6°F-4.7°C 6.8°F-14.0°C 48% Calm Calm 4.8 mph7.7 kmh 30.62 in1036.9 mb 0.00 in0.0 mm 0.00 in/hr0.0 mm/hr 0.00 in0.0 mm
01:15 PM 23.6°F-4.7°C 6.8°F-14.0°C 48% 3.2 mph S5.1 kmh S 4.8 mph7.7 kmh 30.62 in1036.9 mb 0.00 in0.0 mm 0.00 in/hr0.0 mm/hr 0.00 in0.0 mm
01:13 PM 23.6°F-4.7°C 6.4°F-14.2°C 47% 3.2 mph S5.1 kmh S 4.8 mph7.7 kmh 30.62 in1036.9 mb 0.00 in0.0 mm 0.00 in/hr0.0 mm/hr 0.00 in0.0 mm
01:12 PM 23.6°F-4.7°C 6.4°F-14.2°C 47% 3.2 mph SSE5.1 kmh SSE 4.8 mph7.7 kmh 30.62 in1036.9 mb 0.00 in0.0 mm 0.00 in/hr0.0 mm/hr 0.00 in0.0 mm
01:11 PM 23.8°F-4.6°C 6.5°F-14.2°C 47% Calm Calm -- 30.62 in1036.9 mb 0.00 in0.0 mm 0.00 in/hr0.0 mm/hr 0.00 in0.0 mm
01:09 PM 23.8°F-4.6°C 6.5°F-14.2°C 47% Calm Calm -- 30.62 in1036.9 mb 0.00 in0.0 mm 0.00 in/hr0.0 mm/hr 0.00 in0.0 mm
01:07 PM 23.8°F-4.6°C 6.5°F-14.2°C 47% Calm Calm -- 30.62 in1036.9 mb 0.00 in0.0 mm 0.00 in/hr0.0 mm/hr 0.00 in0.0 mm
01:06 PM 23.8°F-4.6°C 6.5°F-14.2°C 47% Calm Calm -- 30.62 in1036.9 mb 0.00 in0.0 mm 0.00 in/hr0.0 mm/hr 0.00 in0.0 mm
01:05 PM 23.8°F-4.6°C 6.5°F-14.2°C 47% Calm Calm -- 30.62 in1036.9 mb 0.00 in0.0 mm 0.00 in/hr0.0 mm/hr 0.00 in0.0 mm
01:04 PM 23.6°F-4.7°C 6.4°F-14.2°C 47% Calm Calm -- 30.62 in1036.9 mb 0.00 in0.0 mm 0.00 in/hr0.0 mm/hr 0.00 in0.0 mm
01:02 PM 23.6°F-4.7°C 6.4°F-14.2°C 47% Calm Calm -- 30.62 in1036.9 mb 0.00 in0.0 mm 0.00 in/hr0.0 mm/hr 0.00 in0.0 mm
01:00 PM 23.6°F-4.7°C 6.4°F-14.2°C 47% Calm Calm -- 30.62 in1036.9 mb 0.00 in0.0 mm 0.00 in/hr0.0 mm/hr 0.00 in0.0 mm
12:59 PM 23.8°F-4.6°C 6.5°F-14.2°C 47% Calm Calm -- 30.62 in1036.9 mb 0.00 in0.0 mm 0.00 in/hr0.0 mm/hr 0.00 in0.0 mm
12:57 PM 23.8°F-4.6°C 6.5°F-14.2°C 47% Calm Calm 3.2 mph5.1 kmh 30.62 in1036.9 mb 0.00 in0.0 mm 0.00 in/hr0.0 mm/hr 0.00 in0.0 mm
12:55 PM 23.8°F-4.6°C 6.5°F-14.2°C 47% Calm Calm 5.4 mph8.7 kmh 30.65 in1037.9 mb 0.00 in0.0 mm 0.00 in/hr0.0 mm/hr 0.00 in0.0 mm
12:53 PM 23.8°F-4.6°C 6.5°F-14.2°C 47% Calm Calm 5.4 mph8.7 kmh 30.65 in1037.9 mb 0.00 in0.0 mm 0.00 in/hr0.0 mm/hr 0.00 in0.0 mm
12:52 PM 23.8°F-4.6°C 6.1°F-14.4°C 46% Calm Calm 5.4 mph8.7 kmh 30.65 in1037.9 mb 0.00 in0.0 mm 0.00 in/hr0.0 mm/hr 0.00 in0.0 mm
12:51 PM 23.8°F-4.6°C 6.1°F-14.4°C 46% Calm Calm 5.4 mph8.7 kmh 30.65 in1037.9 mb 0.00 in0.0 mm 0.00 in/hr0.0 mm/hr 0.00 in0.0 mm
12:49 PM 23.8°F-4.6°C 6.1°F-14.4°C 46% 5.4 mph SW8.7 kmh SW 7.0 mph11.3 kmh 30.65 in1037.9 mb 0.00 in0.0 mm 0.00 in/hr0.0 mm/hr 0.00 in0.0 mm
12:48 PM 23.6°F-4.7°C 5.9°F-14.5°C 46% Calm Calm 7.0 mph11.3 kmh 30.65 in1037.9 mb 0.00 in0.0 mm 0.00 in/hr0.0 mm/hr 0.00 in0.0 mm
12:46 PM 23.8°F-4.6°C 6.1°F-14.4°C 46% 3.8 mph SW6.1 kmh SW 7.0 mph11.3 kmh 30.65 in1037.9 mb 0.00 in0.0 mm 0.00 in/hr0.0 mm/hr 0.00 in0.0 mm
12:45 PM 23.8°F-4.6°C 6.1°F-14.4°C 46% 3.8 mph S6.1 kmh S 7.0 mph11.3 kmh 30.65 in1037.9 mb 0.00 in0.0 mm 0.00 in/hr0.0 mm/hr 0.00 in0.0 mm
12:43 PM 23.8°F-4.6°C 6.1°F-14.4°C 46% 3.2 mph SE5.1 kmh SE 7.0 mph11.3 kmh 30.65 in1037.9 mb 0.00 in0.0 mm 0.00 in/hr0.0 mm/hr 0.00 in0.0 mm
12:42 PM 23.8°F-4.6°C 6.1°F-14.4°C 46% 4.8 mph SW7.7 kmh SW 7.0 mph11.3 kmh 30.65 in1037.9 mb 0.00 in0.0 mm 0.00 in/hr0.0 mm/hr 0.00 in0.0 mm
12:41 PM 24.0°F-4.4°C 6.2°F-14.3°C 46% 3.8 mph SSW6.1 kmh SSW 4.8 mph7.7 kmh 30.65 in1037.9 mb 0.00 in0.0 mm 0.00 in/hr0.0 mm/hr 0.00 in0.0 mm
12:39 PM 24.0°F-4.4°C 6.2°F-14.3°C 46% 4.3 mph SSW6.9 kmh SSW 4.3 mph6.9 kmh 30.65 in1037.9 mb 0.00 in0.0 mm 0.00 in/hr0.0 mm/hr 0.00 in0.0 mm
12:38 PM 24.0°F-4.4°C 6.2°F-14.3°C 46% 2.7 mph SW4.3 kmh SW 4.8 mph7.7 kmh 30.65 in1037.9 mb 0.00 in0.0 mm 0.00 in/hr0.0 mm/hr 0.00 in0.0 mm
12:37 PM 24.0°F-4.4°C 5.7°F-14.6°C 45% 4.3 mph SW6.9 kmh SW 4.8 mph7.7 kmh 30.65 in1037.9 mb 0.00 in0.0 mm 0.00 in/hr0.0 mm/hr 0.00 in0.0 mm
12:35 PM 24.0°F-4.4°C 5.7°F-14.6°C 45% Calm Calm 4.8 mph7.7 kmh 30.65 in1037.9 mb 0.00 in0.0 mm 0.00 in/hr0.0 mm/hr 0.00 in0.0 mm
12:34 PM 24.2°F-4.3°C 5.9°F-14.5°C 45% 2.7 mph S4.3 kmh S 6.4 mph10.3 kmh 30.65 in1037.9 mb 0.00 in0.0 mm 0.00 in/hr0.0 mm/hr 0.00 in0.0 mm
12:33 PM 24.2°F-4.3°C 5.9°F-14.5°C 45% 4.3 mph SW6.9 kmh SW 6.4 mph10.3 kmh 30.65 in1037.9 mb 0.00 in0.0 mm 0.00 in/hr0.0 mm/hr 0.00 in0.0 mm
12:31 PM 24.3°F-4.3°C 6.1°F-14.4°C 45% 2.7 mph S4.3 kmh S 7.0 mph11.3 kmh 30.65 in1037.9 mb 0.00 in0.0 mm 0.00 in/hr0.0 mm/hr 0.00 in0.0 mm
12:30 PM 24.3°F-4.3°C 6.1°F-14.4°C 45% 3.2 mph S5.1 kmh S 7.0 mph11.3 kmh 30.65 in1037.9 mb 0.00 in0.0 mm 0.00 in/hr0.0 mm/hr 0.00 in0.0 mm
12:28 PM 24.5°F-4.2°C 6.2°F-14.3°C 45% 6.4 mph S10.3 kmh S 7.0 mph11.3 kmh 30.65 in1037.9 mb 0.00 in0.0 mm 0.00 in/hr0.0 mm/hr 0.00 in0.0 mm
12:27 PM 24.5°F-4.2°C 6.2°F-14.3°C 45% 4.8 mph SW7.7 kmh SW 7.0 mph11.3 kmh 30.65 in1037.9 mb 0.00 in0.0 mm 0.00 in/hr0.0 mm/hr 0.00 in0.0 mm
12:26 PM 24.5°F-4.2°C 6.2°F-14.3°C 45% 4.8 mph SW7.7 kmh SW 7.0 mph11.3 kmh 30.65 in1037.9 mb 0.00 in0.0 mm 0.00 in/hr0.0 mm/hr 0.00 in0.0 mm
12:24 PM 24.7°F-4.1°C 6.4°F-14.2°C 45% Calm Calm 7.0 mph11.3 kmh 30.65 in1037.9 mb 0.00 in0.0 mm 0.00 in/hr0.0 mm/hr 0.00 in0.0 mm
12:22 PM 24.7°F-4.1°C 6.4°F-14.2°C 45% Calm Calm 7.0 mph11.3 kmh 30.65 in1037.9 mb 0.00 in0.0 mm 0.00 in/hr0.0 mm/hr 0.00 in0.0 mm
12:21 PM 24.7°F-4.1°C 6.4°F-14.2°C 45% 4.3 mph SSW6.9 kmh SSW 7.5 mph12.1 kmh 30.65 in1037.9 mb 0.00 in0.0 mm 0.00 in/hr0.0 mm/hr 0.00 in0.0 mm
12:20 PM 24.7°F-4.1°C 6.4°F-14.2°C 45% Calm Calm 9.9 mph15.9 kmh 30.65 in1037.9 mb 0.00 in0.0 mm 0.00 in/hr0.0 mm/hr 0.00 in0.0 mm
12:18 PM 24.9°F-3.9°C 6.6°F-14.1°C 45% 2.7 mph SW4.3 kmh SW 9.9 mph15.9 kmh 30.65 in1037.9 mb 0.00 in0.0 mm 0.00 in/hr0.0 mm/hr 0.00 in0.0 mm
12:17 PM 24.9°F-3.9°C 6.6°F-14.1°C 45% 7.0 mph SW11.3 kmh SW 9.9 mph15.9 kmh 30.65 in1037.9 mb 0.00 in0.0 mm 0.00 in/hr0.0 mm/hr 0.00 in0.0 mm
12:15 PM 25.1°F-3.8°C 6.7°F-14.1°C 45% 3.2 mph S5.1 kmh S 9.9 mph15.9 kmh 30.65 in1037.9 mb 0.00 in0.0 mm 0.00 in/hr0.0 mm/hr 0.00 in0.0 mm
12:14 PM 25.1°F-3.8°C 6.7°F-14.1°C 45% 7.0 mph SW11.3 kmh SW 9.7 mph15.6 kmh 30.65 in1037.9 mb 0.00 in0.0 mm 0.00 in/hr0.0 mm/hr 0.00 in0.0 mm
12:13 PM 25.1°F-3.8°C 6.7°F-14.1°C 45% 4.3 mph SW6.9 kmh SW 8.6 mph13.8 kmh 30.65 in1037.9 mb 0.00 in0.0 mm 0.00 in/hr0.0 mm/hr 0.00 in0.0 mm
12:12 PM 25.1°F-3.8°C 6.7°F-14.1°C 45% 7.0 mph SW11.3 kmh SW 7.0 mph11.3 kmh 30.65 in1037.9 mb 0.00 in0.0 mm 0.00 in/hr0.0 mm/hr 0.00 in0.0 mm
12:10 PM 25.1°F-3.8°C 6.7°F-14.1°C 45% Calm Calm 6.4 mph10.3 kmh 30.68 in1038.9 mb 0.00 in0.0 mm 0.00 in/hr0.0 mm/hr 0.00 in0.0 mm
12:08 PM 25.1°F-3.8°C 6.7°F-14.1°C 45% 3.2 mph S5.1 kmh S 6.4 mph10.3 kmh 30.68 in1038.9 mb 0.00 in0.0 mm 0.00 in/hr0.0 mm/hr 0.00 in0.0 mm
12:07 PM 25.2°F-3.8°C 6.9°F-13.9°C 45% 4.8 mph S7.7 kmh S 9.7 mph15.6 kmh 30.68 in1038.9 mb 0.00 in0.0 mm 0.00 in/hr0.0 mm/hr 0.00 in0.0 mm
12:06 PM 25.2°F-3.8°C 6.9°F-13.9°C 45% 5.9 mph SSW9.5 kmh SSW 9.7 mph15.6 kmh 30.68 in1038.9 mb 0.00 in0.0 mm 0.00 in/hr0.0 mm/hr 0.00 in0.0 mm
12:04 PM 25.2°F-3.8°C 6.9°F-13.9°C 45% 5.9 mph SSW9.5 kmh SSW 9.7 mph15.6 kmh 30.68 in1038.9 mb 0.00 in0.0 mm 0.00 in/hr0.0 mm/hr 0.00 in0.0 mm
12:03 PM 25.2°F-3.8°C 6.9°F-13.9°C 45% 5.9 mph S9.5 kmh S 9.7 mph15.6 kmh 30.68 in1038.9 mb 0.00 in0.0 mm 0.00 in/hr0.0 mm/hr 0.00 in0.0 mm
12:01 PM 25.4°F-3.7°C 7.1°F-13.8°C 45% 4.8 mph SSW7.7 kmh SSW 12.1 mph19.5 kmh 30.68 in1038.9 mb 0.00 in0.0 mm 0.00 in/hr0.0 mm/hr 0.00 in0.0 mm
12:00 PM 25.6°F-3.6°C 7.2°F-13.8°C 45% 4.3 mph S6.9 kmh S 12.1 mph19.5 kmh 30.68 in1038.9 mb 0.00 in0.0 mm 0.00 in/hr0.0 mm/hr 0.00 in0.0 mm
11:59 AM 25.8°F-3.4°C 6.9°F-13.9°C 44% 7.5 mph SW12.1 kmh SW 12.1 mph19.5 kmh 30.68 in1038.9 mb 0.00 in0.0 mm 0.00 in/hr0.0 mm/hr 0.00 in0.0 mm
11:57 AM 26.0°F-3.3°C 7.1°F-13.8°C 44% 3.2 mph SSW5.1 kmh SSW 12.1 mph19.5 kmh 30.68 in1038.9 mb 0.00 in0.0 mm 0.00 in/hr0.0 mm/hr 0.00 in0.0 mm
11:56 AM 26.1°F-3.3°C 7.2°F-13.8°C 44% 9.1 mph SW14.6 kmh SW 12.1 mph19.5 kmh 30.68 in1038.9 mb 0.00 in0.0 mm 0.00 in/hr0.0 mm/hr 0.00 in0.0 mm
11:55 AM 26.1°F-3.3°C 7.2°F-13.8°C 44% 7.0 mph SSW11.3 kmh SSW 9.7 mph15.6 kmh 30.68 in1038.9 mb 0.00 in0.0 mm 0.00 in/hr0.0 mm/hr 0.00 in0.0 mm
11:53 AM 26.3°F-3.2°C 7.4°F-13.7°C 44% 5.9 mph S9.5 kmh S 9.9 mph15.9 kmh 30.68 in1038.9 mb 0.00 in0.0 mm 0.00 in/hr0.0 mm/hr 0.00 in0.0 mm
11:52 AM 26.3°F-3.2°C 7.4°F-13.7°C 44% 9.7 mph SW15.6 kmh SW 9.9 mph15.9 kmh 30.68 in1038.9 mb 0.00 in0.0 mm 0.00 in/hr0.0 mm/hr 0.00 in0.0 mm
11:51 AM 26.3°F-3.2°C 7.4°F-13.7°C 44% 2.7 mph S4.3 kmh S 9.9 mph15.9 kmh 30.68 in1038.9 mb 0.00 in0.0 mm 0.00 in/hr0.0 mm/hr 0.00 in0.0 mm
11:49 AM 26.5°F-3.1°C 7.6°F-13.6°C 44% 7.0 mph SW11.3 kmh SW 9.9 mph15.9 kmh 30.68 in1038.9 mb 0.00 in0.0 mm 0.00 in/hr0.0 mm/hr 0.00 in0.0 mm
11:48 AM 26.5°F-3.1°C 7.6°F-13.6°C 44% 4.8 mph S7.7 kmh S 9.9 mph15.9 kmh 30.68 in1038.9 mb 0.00 in0.0 mm 0.00 in/hr0.0 mm/hr 0.00 in0.0 mm
11:46 AM 26.5°F-3.1°C 7.6°F-13.6°C 44% 7.5 mph SSW12.1 kmh SSW 9.7 mph15.6 kmh 30.68 in1038.9 mb 0.00 in0.0 mm 0.00 in/hr0.0 mm/hr 0.00 in0.0 mm
11:45 AM 26.5°F-3.1°C 7.6°F-13.6°C 44% 6.4 mph WSW10.3 kmh WSW 9.7 mph15.6 kmh 30.68 in1038.9 mb 0.00 in0.0 mm 0.00 in/hr0.0 mm/hr 0.00 in0.0 mm
11:43 AM 26.5°F-3.1°C 7.6°F-13.6°C 44% 7.0 mph SW11.3 kmh SW 7.0 mph11.3 kmh 30.68 in1038.9 mb 0.00 in0.0 mm 0.00 in/hr0.0 mm/hr 0.00 in0.0 mm
11:42 AM 26.5°F-3.1°C 7.6°F-13.6°C 44% 5.9 mph SW9.5 kmh SW 7.0 mph11.3 kmh 30.68 in1038.9 mb 0.00 in0.0 mm 0.00 in/hr0.0 mm/hr 0.00 in0.0 mm
11:40 AM 26.5°F-3.1°C 7.6°F-13.6°C 44% 3.2 mph SSW5.1 kmh SSW 9.1 mph14.6 kmh 30.68 in1038.9 mb 0.00 in0.0 mm 0.00 in/hr0.0 mm/hr 0.00 in0.0 mm
11:39 AM 26.5°F-3.1°C 7.6°F-13.6°C 44% 4.8 mph SSW7.7 kmh SSW 9.1 mph14.6 kmh 30.68 in1038.9 mb 0.00 in0.0 mm 0.00 in/hr0.0 mm/hr 0.00 in0.0 mm
11:38 AM 26.5°F-3.1°C 7.6°F-13.6°C 44% 2.7 mph SW4.3 kmh SW 9.9 mph15.9 kmh 30.68 in1038.9 mb 0.00 in0.0 mm 0.00 in/hr0.0 mm/hr 0.00 in0.0 mm
11:36 AM 26.5°F-3.1°C 7.6°F-13.6°C 44% 5.4 mph SW8.7 kmh SW 12.1 mph19.5 kmh 30.68 in1038.9 mb 0.00 in0.0 mm 0.00 in/hr0.0 mm/hr 0.00 in0.0 mm
11:35 AM 26.7°F-2.9°C 7.7°F-13.5°C 44% 7.0 mph SW11.3 kmh SW 12.1 mph19.5 kmh 30.68 in1038.9 mb 0.00 in0.0 mm 0.00 in/hr0.0 mm/hr 0.00 in0.0 mm
11:33 AM 26.7°F-2.9°C 7.7°F-13.5°C 44% 7.0 mph SW11.3 kmh SW 12.1 mph19.5 kmh 30.68 in1038.9 mb 0.00 in0.0 mm 0.00 in/hr0.0 mm/hr 0.00 in0.0 mm
11:32 AM 26.7°F-2.9°C 7.7°F-13.5°C 44% 7.5 mph WSW12.1 kmh WSW 14.8 mph23.8 kmh 30.68 in1038.9 mb 0.00 in0.0 mm 0.00 in/hr0.0 mm/hr 0.00 in0.0 mm
11:31 AM 26.9°F-2.8°C 7.9°F-13.4°C 44% 5.4 mph SSW8.7 kmh SSW 14.8 mph23.8 kmh 30.68 in1038.9 mb 0.00 in0.0 mm 0.00 in/hr0.0 mm/hr 0.00 in0.0 mm
11:30 AM 26.9°F-2.8°C 7.9°F-13.4°C 44% 12.1 mph SW19.5 kmh SW 14.8 mph23.8 kmh 30.68 in1038.9 mb 0.00 in0.0 mm 0.00 in/hr0.0 mm/hr 0.00 in0.0 mm
11:29 AM 26.9°F-2.8°C 7.9°F-13.4°C 44% 5.9 mph SW9.5 kmh SW 14.8 mph23.8 kmh 30.68 in1038.9 mb 0.00 in0.0 mm 0.00 in/hr0.0 mm/hr 0.00 in0.0 mm
11:28 AM 26.9°F-2.8°C 7.9°F-13.4°C 44% 5.9 mph SW9.5 kmh SW 14.8 mph23.8 kmh 30.68 in1038.9 mb 0.00 in0.0 mm 0.00 in/hr0.0 mm/hr 0.00 in0.0 mm
11:27 AM 26.9°F-2.8°C 7.9°F-13.4°C 44% 4.8 mph SW7.7 kmh SW 14.8 mph23.8 kmh 30.68 in1038.9 mb 0.00 in0.0 mm 0.00 in/hr0.0 mm/hr 0.00 in0.0 mm
11:25 AM 26.9°F-2.8°C 7.9°F-13.4°C 44% 5.9 mph SSW9.5 kmh SSW 13.2 mph21.2 kmh 30.71 in1040.0 mb 0.00 in0.0 mm 0.00 in/hr0.0 mm/hr 0.00 in0.0 mm
11:24 AM 26.9°F-2.8°C 7.9°F-13.4°C 44% 7.0 mph SW11.3 kmh SW 13.2 mph21.2 kmh 30.71 in1040.0 mb 0.00 in0.0 mm 0.00 in/hr0.0 mm/hr 0.00 in0.0 mm
11:22 AM 26.9°F-2.8°C 7.9°F-13.4°C 44% 8.1 mph SSW13.0 kmh SSW 9.7 mph15.6 kmh 30.71 in1040.0 mb 0.00 in0.0 mm 0.00 in/hr0.0 mm/hr 0.00 in0.0 mm
11:21 AM 26.9°F-2.8°C 7.9°F-13.4°C 44% 4.8 mph SW7.7 kmh SW 9.9 mph15.9 kmh 30.71 in1040.0 mb 0.00 in0.0 mm 0.00 in/hr0.0 mm/hr 0.00 in0.0 mm
11:20 AM 26.9°F-2.8°C 7.9°F-13.4°C 44% 4.8 mph SW7.7 kmh SW 9.9 mph15.9 kmh 30.71 in1040.0 mb 0.00 in0.0 mm 0.00 in/hr0.0 mm/hr 0.00 in0.0 mm
11:17 AM 27.0°F-2.8°C 8.0°F-13.3°C 44% 7.5 mph S12.1 kmh S 9.9 mph15.9 kmh 30.71 in1040.0 mb 0.00 in0.0 mm 0.00 in/hr0.0 mm/hr 0.00 in0.0 mm
11:15 AM 27.0°F-2.8°C 8.0°F-13.3°C 44% 6.4 mph SSW10.3 kmh SSW 9.9 mph15.9 kmh 30.71 in1040.0 mb 0.00 in0.0 mm 0.00 in/hr0.0 mm/hr 0.00 in0.0 mm
11:14 AM 27.0°F-2.8°C 8.0°F-13.3°C 44% 3.8 mph SSW6.1 kmh SSW 8.1 mph13.0 kmh 30.71 in1040.0 mb 0.00 in0.0 mm 0.00 in/hr0.0 mm/hr 0.00 in0.0 mm
11:13 AM 27.2°F-2.7°C 8.2°F-13.2°C 44% 7.5 mph S12.1 kmh S 8.1 mph13.0 kmh 30.71 in1040.0 mb 0.00 in0.0 mm 0.00 in/hr0.0 mm/hr 0.00 in0.0 mm
11:11 AM 27.2°F-2.7°C 8.2°F-13.2°C 44% 5.9 mph SSW9.5 kmh SSW 7.0 mph11.3 kmh 30.71 in1040.0 mb 0.00 in0.0 mm 0.00 in/hr0.0 mm/hr 0.00 in0.0 mm
11:10 AM 27.2°F-2.7°C 8.2°F-13.2°C 44% 3.8 mph SSW6.1 kmh SSW 7.0 mph11.3 kmh 30.68 in1038.9 mb 0.00 in0.0 mm 0.00 in/hr0.0 mm/hr 0.00 in0.0 mm
11:08 AM 27.2°F-2.7°C 8.2°F-13.2°C 44% 4.3 mph SSW6.9 kmh SSW 7.0 mph11.3 kmh 30.68 in1038.9 mb 0.00 in0.0 mm 0.00 in/hr0.0 mm/hr 0.00 in0.0 mm
11:07 AM 27.2°F-2.7°C 8.2°F-13.2°C 44% 3.8 mph S6.1 kmh S 7.0 mph11.3 kmh 30.68 in1038.9 mb 0.00 in0.0 mm 0.00 in/hr0.0 mm/hr 0.00 in0.0 mm
11:06 AM 27.2°F-2.7°C 8.2°F-13.2°C 44% 3.2 mph SW5.1 kmh SW 7.0 mph11.3 kmh 30.68 in1038.9 mb 0.00 in0.0 mm 0.00 in/hr0.0 mm/hr 0.00 in0.0 mm
11:04 AM 27.0°F-2.8°C 8.0°F-13.3°C 44% 4.8 mph SW7.7 kmh SW 6.4 mph10.3 kmh 30.68 in1038.9 mb 0.00 in0.0 mm 0.00 in/hr0.0 mm/hr 0.00 in0.0 mm
11:03 AM 26.9°F-2.8°C 7.9°F-13.4°C 44% Calm Calm 9.7 mph15.6 kmh 30.68 in1038.9 mb 0.00 in0.0 mm 0.00 in/hr0.0 mm/hr 0.00 in0.0 mm
11:02 AM 26.9°F-2.8°C 7.9°F-13.4°C 44% 3.8 mph SSW6.1 kmh SSW 13.2 mph21.2 kmh 30.68 in1038.9 mb 0.00 in0.0 mm 0.00 in/hr0.0 mm/hr 0.00 in0.0 mm
11:00 AM 26.9°F-2.8°C 7.9°F-13.4°C 44% 6.4 mph SW10.3 kmh SW 13.2 mph21.2 kmh 30.68 in1038.9 mb 0.00 in0.0 mm 0.00 in/hr0.0 mm/hr 0.00 in0.0 mm
10:58 AM 26.9°F-2.8°C 7.9°F-13.4°C 44% 3.2 mph S5.1 kmh S 13.2 mph21.2 kmh 30.68 in1038.9 mb 0.00 in0.0 mm 0.00 in/hr0.0 mm/hr 0.00 in0.0 mm
10:56 AM 26.9°F-2.8°C 7.9°F-13.4°C 44% 5.9 mph SSW9.5 kmh SSW 13.2 mph21.2 kmh 30.68 in1038.9 mb 0.00 in0.0 mm 0.00 in/hr0.0 mm/hr 0.00 in0.0 mm
10:54 AM 26.9°F-2.8°C 7.9°F-13.4°C 44% 6.4 mph SSW10.3 kmh SSW 7.5 mph12.1 kmh 30.68 in1038.9 mb 0.00 in0.0 mm 0.00 in/hr0.0 mm/hr 0.00 in0.0 mm
10:53 AM 26.9°F-2.8°C 7.9°F-13.4°C 44% 4.3 mph S6.9 kmh S 7.0 mph11.3 kmh 30.68 in1038.9 mb 0.00 in0.0 mm 0.00 in/hr0.0 mm/hr 0.00 in0.0 mm
10:51 AM 27.0°F-2.8°C 8.0°F-13.3°C 44% 3.8 mph S6.1 kmh S 9.7 mph15.6 kmh 30.68 in1038.9 mb 0.00 in0.0 mm 0.00 in/hr0.0 mm/hr 0.00 in0.0 mm
10:50 AM 27.0°F-2.8°C 8.0°F-13.3°C 44% 7.0 mph S11.3 kmh S 10.5 mph16.9 kmh 30.68 in1038.9 mb 0.00 in0.0 mm 0.00 in/hr0.0 mm/hr 0.00 in0.0 mm
10:49 AM 27.0°F-2.8°C 8.0°F-13.3°C 44% Calm Calm 10.5 mph16.9 kmh 30.68 in1038.9 mb 0.00 in0.0 mm 0.00 in/hr0.0 mm/hr 0.00 in0.0 mm
10:47 AM 26.9°F-2.8°C 7.9°F-13.4°C 44% 3.8 mph SSW6.1 kmh SSW 10.5 mph16.9 kmh 30.68 in1038.9 mb 0.00 in0.0 mm 0.00 in/hr0.0 mm/hr 0.00 in0.0 mm
10:46 AM 26.9°F-2.8°C 7.9°F-13.4°C 44% 4.8 mph SW7.7 kmh SW 10.5 mph16.9 kmh 30.68 in1038.9 mb 0.00 in0.0 mm 0.00 in/hr0.0 mm/hr 0.00 in0.0 mm
10:44 AM 26.9°F-2.8°C 7.9°F-13.4°C 44% 7.5 mph SW12.1 kmh SW 10.5 mph16.9 kmh 30.68 in1038.9 mb 0.00 in0.0 mm 0.00 in/hr0.0 mm/hr 0.00 in0.0 mm
10:43 AM 26.9°F-2.8°C 7.9°F-13.4°C 44% 9.7 mph SSW15.6 kmh SSW 10.5 mph16.9 kmh 30.68 in1038.9 mb 0.00 in0.0 mm 0.00 in/hr0.0 mm/hr 0.00 in0.0 mm
10:42 AM 26.9°F-2.8°C 7.9°F-13.4°C 44% 3.8 mph SSW6.1 kmh SSW 7.5 mph12.1 kmh 30.68 in1038.9 mb 0.00 in0.0 mm 0.00 in/hr0.0 mm/hr 0.00 in0.0 mm
10:40 AM 26.9°F-2.8°C 7.9°F-13.4°C 44% 4.8 mph S7.7 kmh S 7.5 mph12.1 kmh 30.71 in1040.0 mb 0.00 in0.0 mm 0.00 in/hr0.0 mm/hr 0.00 in0.0 mm
10:39 AM 26.9°F-2.8°C 7.9°F-13.4°C 44% 3.8 mph S6.1 kmh S 7.5 mph12.1 kmh 30.71 in1040.0 mb 0.00 in0.0 mm 0.00 in/hr0.0 mm/hr 0.00 in0.0 mm
10:38 AM 26.9°F-2.8°C 7.9°F-13.4°C 44% 4.8 mph S7.7 kmh S 7.5 mph12.1 kmh 30.71 in1040.0 mb 0.00 in0.0 mm 0.00 in/hr0.0 mm/hr 0.00 in0.0 mm
10:36 AM 26.9°F-2.8°C 7.9°F-13.4°C 44% 5.9 mph S9.5 kmh S 7.0 mph11.3 kmh 30.71 in1040.0 mb 0.00 in0.0 mm 0.00 in/hr0.0 mm/hr 0.00 in0.0 mm
10:35 AM 26.9°F-2.8°C 7.9°F-13.4°C 44% 4.3 mph SSW6.9 kmh SSW 7.5 mph12.1 kmh 30.71 in1040.0 mb 0.00 in0.0 mm 0.00 in/hr0.0 mm/hr 0.00 in0.0 mm
10:33 AM 26.9°F-2.8°C 7.9°F-13.4°C 44% 7.0 mph S11.3 kmh S 7.5 mph12.1 kmh 30.71 in1040.0 mb 0.00 in0.0 mm 0.00 in/hr0.0 mm/hr 0.00 in0.0 mm
10:32 AM 26.7°F-2.9°C 7.7°F-13.5°C 44% 3.2 mph SSW5.1 kmh SSW 7.5 mph12.1 kmh 30.71 in1040.0 mb 0.00 in0.0 mm 0.00 in/hr0.0 mm/hr 0.00 in0.0 mm
10:31 AM 26.7°F-2.9°C 7.7°F-13.5°C 44% 2.7 mph S4.3 kmh S 7.5 mph12.1 kmh 30.71 in1040.0 mb 0.00 in0.0 mm 0.00 in/hr0.0 mm/hr 0.00 in0.0 mm
10:29 AM 26.9°F-2.8°C 7.9°F-13.4°C 44% 5.9 mph S9.5 kmh S 7.5 mph12.1 kmh 30.71 in1040.0 mb 0.00 in0.0 mm 0.00 in/hr0.0 mm/hr 0.00 in0.0 mm
10:28 AM 26.7°F-2.9°C 7.7°F-13.5°C 44% 3.8 mph SSE6.1 kmh SSE 6.4 mph10.3 kmh 30.71 in1040.0 mb 0.00 in0.0 mm 0.00 in/hr0.0 mm/hr 0.00 in0.0 mm
10:26 AM 26.7°F-2.9°C 7.7°F-13.5°C 44% 3.8 mph SSW6.1 kmh SSW 6.4 mph10.3 kmh 30.71 in1040.0 mb 0.00 in0.0 mm 0.00 in/hr0.0 mm/hr 0.00 in0.0 mm
10:25 AM 26.7°F-2.9°C 7.7°F-13.5°C 44% 3.8 mph SE6.1 kmh SE 6.4 mph10.3 kmh 30.71 in1040.0 mb 0.00 in0.0 mm 0.00 in/hr0.0 mm/hr 0.00 in0.0 mm
10:23 AM 26.9°F-2.8°C 7.9°F-13.4°C 44% 4.3 mph S6.9 kmh S 7.5 mph12.1 kmh 30.71 in1040.0 mb 0.00 in0.0 mm 0.00 in/hr0.0 mm/hr 0.00 in0.0 mm
10:22 AM 26.7°F-2.9°C 7.7°F-13.5°C 44% 5.9 mph S9.5 kmh S 7.5 mph12.1 kmh 30.71 in1040.0 mb 0.00 in0.0 mm 0.00 in/hr0.0 mm/hr 0.00 in0.0 mm
10:21 AM 26.7°F-2.9°C 7.7°F-13.5°C 44% 3.8 mph SW6.1 kmh SW 9.7 mph15.6 kmh 30.71 in1040.0 mb 0.00 in0.0 mm 0.00 in/hr0.0 mm/hr 0.00 in0.0 mm
10:20 AM 26.3°F-3.2°C 7.4°F-13.7°C 44% 4.8 mph SSW7.7 kmh SSW 9.7 mph15.6 kmh 30.71 in1040.0 mb 0.00 in0.0 mm 0.00 in/hr0.0 mm/hr 0.00 in0.0 mm
10:18 AM 26.3°F-3.2°C 7.4°F-13.7°C 44% 6.4 mph S10.3 kmh S 9.7 mph15.6 kmh 30.71 in1040.0 mb 0.00 in0.0 mm 0.00 in/hr0.0 mm/hr 0.00 in0.0 mm
10:16 AM 26.3°F-3.2°C 7.4°F-13.7°C 44% 7.0 mph SSW11.3 kmh SSW 9.7 mph15.6 kmh 30.71 in1040.0 mb 0.00 in0.0 mm 0.00 in/hr0.0 mm/hr 0.00 in0.0 mm
10:15 AM 26.3°F-3.2°C 7.4°F-13.7°C 44% 4.8 mph SSW7.7 kmh SSW 9.7 mph15.6 kmh 30.71 in1040.0 mb 0.00 in0.0 mm 0.00 in/hr0.0 mm/hr 0.00 in0.0 mm
10:14 AM 26.3°F-3.2°C 7.4°F-13.7°C 44% 6.4 mph SSE10.3 kmh SSE 9.7 mph15.6 kmh 30.71 in1040.0 mb 0.00 in0.0 mm 0.00 in/hr0.0 mm/hr 0.00 in0.0 mm
10:13 AM 26.3°F-3.2°C 7.4°F-13.7°C 44% 9.7 mph SW15.6 kmh SW 9.7 mph15.6 kmh 30.71 in1040.0 mb 0.00 in0.0 mm 0.00 in/hr0.0 mm/hr 0.00 in0.0 mm
10:11 AM 26.1°F-3.3°C 7.2°F-13.8°C 44% 8.6 mph SW13.8 kmh SW 8.6 mph13.8 kmh 30.71 in1040.0 mb 0.00 in0.0 mm 0.00 in/hr0.0 mm/hr 0.00 in0.0 mm
10:09 AM 26.1°F-3.3°C 7.2°F-13.8°C 44% 4.8 mph SW7.7 kmh SW 7.0 mph11.3 kmh 30.71 in1040.0 mb 0.00 in0.0 mm 0.00 in/hr0.0 mm/hr 0.00 in0.0 mm
10:08 AM 26.0°F-3.3°C 7.1°F-13.8°C 44% 4.8 mph S7.7 kmh S 7.0 mph11.3 kmh 30.71 in1040.0 mb 0.00 in0.0 mm 0.00 in/hr0.0 mm/hr 0.00 in0.0 mm
10:07 AM 26.0°F-3.3°C 7.1°F-13.8°C 44% 4.3 mph SSW6.9 kmh SSW 7.0 mph11.3 kmh 30.71 in1040.0 mb 0.00 in0.0 mm 0.00 in/hr0.0 mm/hr 0.00 in0.0 mm
10:06 AM 26.0°F-3.3°C 7.1°F-13.8°C 44% 3.8 mph SSW6.1 kmh SSW 7.0 mph11.3 kmh 30.71 in1040.0 mb 0.00 in0.0 mm 0.00 in/hr0.0 mm/hr 0.00 in0.0 mm
10:04 AM 26.0°F-3.3°C 7.1°F-13.8°C 44% 4.3 mph SSW6.9 kmh SSW 7.0 mph11.3 kmh 30.71 in1040.0 mb 0.00 in0.0 mm 0.00 in/hr0.0 mm/hr 0.00 in0.0 mm
10:02 AM 26.0°F-3.3°C 7.1°F-13.8°C 44% 4.8 mph S7.7 kmh S 7.0 mph11.3 kmh 30.71 in1040.0 mb 0.00 in0.0 mm 0.00 in/hr0.0 mm/hr 0.00 in0.0 mm
10:01 AM 26.0°F-3.3°C 7.1°F-13.8°C 44% 3.8 mph SSW6.1 kmh SSW 7.0 mph11.3 kmh 30.71 in1040.0 mb 0.00 in0.0 mm 0.00 in/hr0.0 mm/hr 0.00 in0.0 mm
10:00 AM 26.0°F-3.3°C 7.1°F-13.8°C 44% 3.2 mph S5.1 kmh S 7.0 mph11.3 kmh 30.71 in1040.0 mb 0.00 in0.0 mm 0.00 in/hr0.0 mm/hr 0.00 in0.0 mm
09:58 AM 26.0°F-3.3°C 7.1°F-13.8°C 44% 3.8 mph S6.1 kmh S 8.1 mph13.0 kmh 30.71 in1040.0 mb 0.00 in0.0 mm 0.00 in/hr0.0 mm/hr 0.00 in0.0 mm
09:57 AM 26.0°F-3.3°C 7.1°F-13.8°C 44% 5.9 mph SSW9.5 kmh SSW 8.1 mph13.0 kmh 30.71 in1040.0 mb 0.00 in0.0 mm 0.00 in/hr0.0 mm/hr 0.00 in0.0 mm
09:56 AM 26.0°F-3.3°C 7.1°F-13.8°C 44% 4.3 mph S6.9 kmh S 8.1 mph13.0 kmh 30.71 in1040.0 mb 0.00 in0.0 mm 0.00 in/hr0.0 mm/hr 0.00 in0.0 mm
09:54 AM 25.8°F-3.4°C 6.9°F-13.9°C 44% 4.8 mph SW7.7 kmh SW 8.1 mph13.0 kmh 30.71 in1040.0 mb 0.00 in0.0 mm 0.00 in/hr0.0 mm/hr 0.00 in0.0 mm
09:53 AM 25.8°F-3.4°C 6.9°F-13.9°C 44% 4.3 mph SW6.9 kmh SW 8.1 mph13.0 kmh 30.71 in1040.0 mb 0.00 in0.0 mm 0.00 in/hr0.0 mm/hr 0.00 in0.0 mm
09:52 AM 25.8°F-3.4°C 6.9°F-13.9°C 44% 4.3 mph SW6.9 kmh SW 7.5 mph12.1 kmh 30.71 in1040.0 mb 0.00 in0.0 mm 0.00 in/hr0.0 mm/hr 0.00 in0.0 mm
09:50 AM 25.8°F-3.4°C 6.9°F-13.9°C 44% 4.3 mph S6.9 kmh S 7.5 mph12.1 kmh 30.71 in1040.0 mb 0.00 in0.0 mm 0.00 in/hr0.0 mm/hr 0.00 in0.0 mm
09:49 AM 25.8°F-3.4°C 6.9°F-13.9°C 44% 6.4 mph S10.3 kmh S 7.5 mph12.1 kmh 30.71 in1040.0 mb 0.00 in0.0 mm 0.00 in/hr0.0 mm/hr 0.00 in0.0 mm
09:47 AM 25.6°F-3.6°C 7.2°F-13.8°C 45% 4.3 mph SSW6.9 kmh SSW 7.5 mph12.1 kmh 30.71 in1040.0 mb 0.00 in0.0 mm 0.00 in/hr0.0 mm/hr 0.00 in0.0 mm
09:46 AM 25.6°F-3.6°C 7.2°F-13.8°C 45% 6.4 mph SSW10.3 kmh SSW 7.5 mph12.1 kmh 30.71 in1040.0 mb 0.00 in0.0 mm 0.00 in/hr0.0 mm/hr 0.00 in0.0 mm
09:44 AM 25.4°F-3.7°C 7.1°F-13.8°C 45% 3.2 mph S5.1 kmh S 5.4 mph8.7 kmh 30.71 in1040.0 mb 0.00 in0.0 mm 0.00 in/hr0.0 mm/hr 0.00 in0.0 mm
09:43 AM 25.4°F-3.7°C 7.1°F-13.8°C 45% 4.8 mph S7.7 kmh S 5.9 mph9.5 kmh 30.71 in1040.0 mb 0.00 in0.0 mm 0.00 in/hr0.0 mm/hr 0.00 in0.0 mm
09:42 AM 25.4°F-3.7°C 7.1°F-13.8°C 45% Calm Calm 5.9 mph9.5 kmh 30.71 in1040.0 mb 0.00 in0.0 mm 0.00 in/hr0.0 mm/hr 0.00 in0.0 mm
09:40 AM 25.4°F-3.7°C 7.1°F-13.8°C 45% Calm Calm 5.9 mph9.5 kmh 30.68 in1038.9 mb 0.00 in0.0 mm 0.00 in/hr0.0 mm/hr 0.00 in0.0 mm
09:39 AM 25.2°F-3.8°C 6.9°F-13.9°C 45% 3.2 mph S5.1 kmh S 5.9 mph9.5 kmh 30.68 in1038.9 mb 0.00 in0.0 mm 0.00 in/hr0.0 mm/hr 0.00 in0.0 mm
09:37 AM 25.2°F-3.8°C 6.9°F-13.9°C 45% 4.3 mph S6.9 kmh S 5.9 mph9.5 kmh 30.68 in1038.9 mb 0.00 in0.0 mm 0.00 in/hr0.0 mm/hr 0.00 in0.0 mm
09:36 AM 25.1°F-3.8°C 6.7°F-14.1°C 45% Calm Calm 5.9 mph9.5 kmh 30.68 in1038.9 mb 0.00 in0.0 mm 0.00 in/hr0.0 mm/hr 0.00 in0.0 mm
09:35 AM 25.1°F-3.8°C 6.7°F-14.1°C 45% Calm Calm 5.9 mph9.5 kmh 30.68 in1038.9 mb 0.00 in0.0 mm 0.00 in/hr0.0 mm/hr 0.00 in0.0 mm
09:33 AM 24.9°F-3.9°C 6.6°F-14.1°C 45% Calm Calm 5.9 mph9.5 kmh 30.68 in1038.9 mb 0.00 in0.0 mm 0.00 in/hr0.0 mm/hr 0.00 in0.0 mm
09:32 AM 24.9°F-3.9°C 6.6°F-14.1°C 45% Calm Calm 5.9 mph9.5 kmh 30.68 in1038.9 mb 0.00 in0.0 mm 0.00 in/hr0.0 mm/hr 0.00 in0.0 mm
09:31 AM 24.9°F-3.9°C 6.6°F-14.1°C 45% Calm Calm 5.9 mph9.5 kmh 30.68 in1038.9 mb 0.00 in0.0 mm 0.00 in/hr0.0 mm/hr 0.00 in0.0 mm
09:29 AM 24.5°F-4.2°C 6.2°F-14.3°C 45% 5.9 mph SE9.5 kmh SE 5.9 mph9.5 kmh 30.68 in1038.9 mb 0.00 in0.0 mm 0.00 in/hr0.0 mm/hr 0.00 in0.0 mm
09:27 AM 24.5°F-4.2°C 6.2°F-14.3°C 45% Calm Calm 4.8 mph7.7 kmh 30.68 in1038.9 mb 0.00 in0.0 mm 0.00 in/hr0.0 mm/hr 0.00 in0.0 mm
09:26 AM 24.5°F-4.2°C 6.2°F-14.3°C 45% 3.8 mph S6.1 kmh S 4.8 mph7.7 kmh 30.68 in1038.9 mb 0.00 in0.0 mm 0.00 in/hr0.0 mm/hr 0.00 in0.0 mm
09:25 AM 24.3°F-4.3°C 6.1°F-14.4°C 45% 3.2 mph S5.1 kmh S 5.9 mph9.5 kmh 30.71 in1040.0 mb 0.00 in0.0 mm 0.00 in/hr0.0 mm/hr 0.00 in0.0 mm
09:23 AM 24.3°F-4.3°C 6.1°F-14.4°C 45% Calm Calm 5.9 mph9.5 kmh 30.71 in1040.0 mb 0.00 in0.0 mm 0.00 in/hr0.0 mm/hr 0.00 in0.0 mm
09:22 AM 24.3°F-4.3°C 6.1°F-14.4°C 45% 3.8 mph S6.1 kmh S 5.9 mph9.5 kmh 30.71 in1040.0 mb 0.00 in0.0 mm 0.00 in/hr0.0 mm/hr 0.00 in0.0 mm
09:21 AM 24.3°F-4.3°C 6.1°F-14.4°C 45% 4.8 mph S7.7 kmh S 5.9 mph9.5 kmh 30.71 in1040.0 mb 0.00 in0.0 mm 0.00 in/hr0.0 mm/hr 0.00 in0.0 mm
09:19 AM 24.3°F-4.3°C 6.1°F-14.4°C 45% 3.2 mph SSE5.1 kmh SSE 5.9 mph9.5 kmh 30.71 in1040.0 mb 0.00 in0.0 mm 0.00 in/hr0.0 mm/hr 0.00 in0.0 mm
09:18 AM 24.2°F-4.3°C 5.9°F-14.5°C 45% Calm Calm 5.9 mph9.5 kmh 30.71 in1040.0 mb 0.00 in0.0 mm 0.00 in/hr0.0 mm/hr 0.00 in0.0 mm
09:16 AM 24.0°F-4.4°C 5.7°F-14.6°C 45% Calm Calm 5.9 mph9.5 kmh 30.71 in1040.0 mb 0.00 in0.0 mm 0.00 in/hr0.0 mm/hr 0.00 in0.0 mm
09:15 AM 24.0°F-4.4°C 5.7°F-14.6°C 45% Calm Calm 5.9 mph9.5 kmh 30.71 in1040.0 mb 0.00 in0.0 mm 0.00 in/hr0.0 mm/hr 0.00 in0.0 mm
09:14 AM 24.0°F-4.4°C 5.7°F-14.6°C 45% Calm Calm 5.9 mph9.5 kmh 30.71 in1040.0 mb 0.00 in0.0 mm 0.00 in/hr0.0 mm/hr 0.00 in0.0 mm
09:12 AM 24.0°F-4.4°C 5.7°F-14.6°C 45% 3.2 mph S5.1 kmh S 5.9 mph9.5 kmh 30.71 in1040.0 mb 0.00 in0.0 mm 0.00 in/hr0.0 mm/hr 0.00 in0.0 mm
09:11 AM 24.0°F-4.4°C 5.7°F-14.6°C 45% 3.8 mph S6.1 kmh S 4.8 mph7.7 kmh 30.74 in1041.0 mb 0.00 in0.0 mm 0.00 in/hr0.0 mm/hr 0.00 in0.0 mm
09:09 AM 24.0°F-4.4°C 5.7°F-14.6°C 45% Calm Calm 4.8 mph7.7 kmh 30.74 in1041.0 mb 0.00 in0.0 mm 0.00 in/hr0.0 mm/hr 0.00 in0.0 mm
09:08 AM 24.0°F-4.4°C 5.7°F-14.6°C 45% 4.3 mph S6.9 kmh S 4.3 mph6.9 kmh 30.74 in1041.0 mb 0.00 in0.0 mm 0.00 in/hr0.0 mm/hr 0.00 in0.0 mm
09:07 AM 24.0°F-4.4°C 5.7°F-14.6°C 45% Calm Calm -- 30.74 in1041.0 mb 0.00 in0.0 mm 0.00 in/hr0.0 mm/hr 0.00 in0.0 mm
09:05 AM 23.8°F-4.6°C 5.6°F-14.7°C 45% Calm Calm -- 30.74 in1041.0 mb 0.00 in0.0 mm 0.00 in/hr0.0 mm/hr 0.00 in0.0 mm
09:04 AM 23.8°F-4.6°C 5.6°F-14.7°C 45% Calm Calm -- 30.74 in1041.0 mb 0.00 in0.0 mm 0.00 in/hr0.0 mm/hr 0.00 in0.0 mm
09:02 AM 23.8°F-4.6°C 5.6°F-14.7°C 45% Calm Calm -- 30.74 in1041.0 mb 0.00 in0.0 mm 0.00 in/hr0.0 mm/hr 0.00 in0.0 mm
09:01 AM 23.8°F-4.6°C 5.6°F-14.7°C 45% Calm Calm -- 30.74 in1041.0 mb 0.00 in0.0 mm 0.00 in/hr0.0 mm/hr 0.00 in0.0 mm
09:00 AM 23.8°F-4.6°C 5.6°F-14.7°C 45% Calm Calm -- 30.74 in1041.0 mb 0.00 in0.0 mm 0.00 in/hr0.0 mm/hr 0.00 in0.0 mm
08:59 AM 23.8°F-4.6°C 5.6°F-14.7°C 45% Calm Calm -- 30.74 in1041.0 mb 0.00 in0.0 mm 0.00 in/hr0.0 mm/hr 0.00 in0.0 mm
08:57 AM 23.8°F-4.6°C 5.6°F-14.7°C 45% Calm Calm -- 30.74 in1041.0 mb 0.00 in0.0 mm 0.00 in/hr0.0 mm/hr 0.00 in0.0 mm
08:55 AM 23.8°F-4.6°C 5.6°F-14.7°C 45% Calm Calm -- 30.74 in1041.0 mb 0.00 in0.0 mm 0.00 in/hr0.0 mm/hr 0.00 in0.0 mm
08:54 AM 23.8°F-4.6°C 5.6°F-14.7°C 45% Calm Calm -- 30.74 in1041.0 mb 0.00 in0.0 mm 0.00 in/hr0.0 mm/hr 0.00 in0.0 mm
08:52 AM 23.8°F-4.6°C 5.6°F-14.7°C 45% Calm Calm -- 30.74 in1041.0 mb 0.00 in0.0 mm 0.00 in/hr0.0 mm/hr 0.00 in0.0 mm
08:51 AM 23.8°F-4.6°C 5.6°F-14.7°C 45% Calm Calm -- 30.74 in1041.0 mb 0.00 in0.0 mm 0.00 in/hr0.0 mm/hr 0.00 in0.0 mm
08:50 AM 23.8°F-4.6°C 5.6°F-14.7°C 45% Calm Calm -- 30.74 in1041.0 mb 0.00 in0.0 mm 0.00 in/hr0.0 mm/hr 0.00 in0.0 mm
08:48 AM 23.8°F-4.6°C 5.6°F-14.7°C 45% Calm Calm -- 30.74 in1041.0 mb 0.00 in0.0 mm 0.00 in/hr0.0 mm/hr 0.00 in0.0 mm
08:47 AM 23.8°F-4.6°C 5.6°F-14.7°C 45% Calm Calm -- 30.74 in1041.0 mb 0.00 in0.0 mm 0.00 in/hr0.0 mm/hr 0.00 in0.0 mm
08:45 AM 23.6°F-4.7°C 5.4°F-14.8°C 45% Calm Calm -- 30.74 in1041.0 mb 0.00 in0.0 mm 0.00 in/hr0.0 mm/hr 0.00 in0.0 mm
08:43 AM 23.6°F-4.7°C 5.4°F-14.8°C 45% Calm Calm -- 30.74 in1041.0 mb 0.00 in0.0 mm 0.00 in/hr0.0 mm/hr 0.00 in0.0 mm
08:41 AM 23.6°F-4.7°C 5.4°F-14.8°C 45% Calm Calm -- 30.74 in1041.0 mb 0.00 in0.0 mm 0.00 in/hr0.0 mm/hr 0.00 in0.0 mm
08:40 AM 23.4°F-4.8°C 5.2°F-14.9°C 45% Calm Calm -- 30.74 in1041.0 mb 0.00 in0.0 mm 0.00 in/hr0.0 mm/hr 0.00 in0.0 mm
08:38 AM 23.4°F-4.8°C 5.2°F-14.9°C 45% Calm Calm -- 30.74 in1041.0 mb 0.00 in0.0 mm 0.00 in/hr0.0 mm/hr 0.00 in0.0 mm
08:36 AM 23.1°F-4.9°C 4.9°F-15.1°C 45% Calm Calm -- 30.74 in1041.0 mb 0.00 in0.0 mm 0.00 in/hr0.0 mm/hr 0.00 in0.0 mm
08:34 AM 23.1°F-4.9°C 4.9°F-15.1°C 45% Calm Calm -- 30.74 in1041.0 mb 0.00 in0.0 mm 0.00 in/hr0.0 mm/hr 0.00 in0.0 mm
08:33 AM 22.9°F-5.1°C 4.8°F-15.1°C 45% Calm Calm -- 30.74 in1041.0 mb 0.00 in0.0 mm 0.00 in/hr0.0 mm/hr 0.00 in0.0 mm
08:31 AM 22.7°F-5.2°C 4.6°F-15.2°C 45% Calm Calm -- 30.74 in1041.0 mb 0.00 in0.0 mm 0.00 in/hr0.0 mm/hr 0.00 in0.0 mm
08:30 AM 22.7°F-5.2°C 4.6°F-15.2°C 45% Calm Calm -- 30.74 in1041.0 mb 0.00 in0.0 mm 0.00 in/hr0.0 mm/hr 0.00 in0.0 mm
08:29 AM 22.5°F-5.3°C 4.4°F-15.3°C 45% Calm Calm -- 30.74 in1041.0 mb 0.00 in0.0 mm 0.00 in/hr0.0 mm/hr 0.00 in0.0 mm
08:27 AM 22.5°F-5.3°C 4.4°F-15.3°C 45% Calm Calm -- 30.74 in1041.0 mb 0.00 in0.0 mm 0.00 in/hr0.0 mm/hr 0.00 in0.0 mm
08:26 AM 22.5°F-5.3°C 4.4°F-15.3°C 45% Calm Calm -- 30.74 in1041.0 mb 0.00 in0.0 mm 0.00 in/hr0.0 mm/hr 0.00 in0.0 mm
08:25 AM 22.4°F-5.3°C 4.3°F-15.4°C 45% Calm Calm -- 30.74 in1041.0 mb 0.00 in0.0 mm 0.00 in/hr0.0 mm/hr 0.00 in0.0 mm
08:23 AM 22.4°F-5.3°C 4.3°F-15.4°C 45% Calm Calm -- 30.74 in1041.0 mb 0.00 in0.0 mm 0.00 in/hr0.0 mm/hr 0.00 in0.0 mm
08:22 AM 22.4°F-5.3°C 4.3°F-15.4°C 45% Calm Calm -- 30.74 in1041.0 mb 0.00 in0.0 mm 0.00 in/hr0.0 mm/hr 0.00 in0.0 mm
08:20 AM 22.4°F-5.3°C 4.3°F-15.4°C 45% Calm Calm -- 30.74 in1041.0 mb 0.00 in0.0 mm 0.00 in/hr0.0 mm/hr 0.00 in0.0 mm
08:19 AM 22.2°F-5.4°C 4.1°F-15.5°C 45% Calm Calm -- 30.74 in1041.0 mb 0.00 in0.0 mm 0.00 in/hr0.0 mm/hr 0.00 in0.0 mm
08:17 AM 22.2°F-5.4°C 4.1°F-15.5°C 45% Calm Calm -- 30.74 in1041.0 mb 0.00 in0.0 mm 0.00 in/hr0.0 mm/hr 0.00 in0.0 mm
08:16 AM 22.2°F-5.4°C 4.1°F-15.5°C 45% Calm Calm -- 30.74 in1041.0 mb 0.00 in0.0 mm 0.00 in/hr0.0 mm/hr 0.00 in0.0 mm
08:15 AM 22.2°F-5.4°C 4.1°F-15.5°C 45% Calm Calm -- 30.74 in1041.0 mb 0.00 in0.0 mm 0.00 in/hr0.0 mm/hr 0.00 in0.0 mm
08:13 AM 22.4°F-5.3°C 4.3°F-15.4°C 45% Calm Calm -- 30.74 in1041.0 mb 0.00 in0.0 mm 0.00 in/hr0.0 mm/hr 0.00 in0.0 mm
08:12 AM 22.4°F-5.3°C 4.3°F-15.4°C 45% Calm Calm -- 30.74 in1041.0 mb 0.00 in0.0 mm 0.00 in/hr0.0 mm/hr 0.00 in0.0 mm
08:10 AM 22.4°F-5.3°C 4.3°F-15.4°C 45% Calm Calm -- 30.74 in1041.0 mb 0.00 in0.0 mm 0.00 in/hr0.0 mm/hr 0.00 in0.0 mm
08:09 AM 22.2°F-5.4°C 4.1°F-15.5°C 45% Calm Calm -- 30.74 in1041.0 mb 0.00 in0.0 mm 0.00 in/hr0.0 mm/hr 0.00 in0.0 mm
08:08 AM 22.2°F-5.4°C 4.1°F-15.5°C 45% Calm Calm -- 30.74 in1041.0 mb 0.00 in0.0 mm 0.00 in/hr0.0 mm/hr 0.00 in0.0 mm
08:07 AM 22.2°F-5.4°C 4.1°F-15.5°C 45% Calm Calm -- 30.74 in1041.0 mb 0.00 in0.0 mm 0.00 in/hr0.0 mm/hr 0.00 in0.0 mm
08:05 AM 22.0°F-5.6°C 4.4°F-15.3°C 46% Calm Calm -- 30.74 in1041.0 mb 0.00 in0.0 mm 0.00 in/hr0.0 mm/hr 0.00 in0.0 mm
08:04 AM 22.0°F-5.6°C 4.4°F-15.3°C 46% Calm Calm -- 30.74 in1041.0 mb 0.00 in0.0 mm 0.00 in/hr0.0 mm/hr 0.00 in0.0 mm
08:02 AM 22.0°F-5.6°C 4.4°F-15.3°C 46% Calm Calm -- 30.74 in1041.0 mb 0.00 in0.0 mm 0.00 in/hr0.0 mm/hr 0.00 in0.0 mm
08:01 AM 21.8°F-5.7°C 4.2°F-15.4°C 46% Calm Calm -- 30.74 in1041.0 mb 0.00 in0.0 mm 0.00 in/hr0.0 mm/hr 0.00 in0.0 mm
08:00 AM 21.8°F-5.7°C 4.2°F-15.4°C 46% Calm Calm -- 30.74 in1041.0 mb 0.00 in0.0 mm 0.00 in/hr0.0 mm/hr 0.00 in0.0 mm
07:58 AM 21.8°F-5.7°C 4.2°F-15.4°C 46% Calm Calm -- 30.74 in1041.0 mb 0.00 in0.0 mm 0.00 in/hr0.0 mm/hr 0.00 in0.0 mm
07:56 AM 21.8°F-5.7°C 4.2°F-15.4°C 46% Calm Calm -- 30.74 in1041.0 mb 0.00 in0.0 mm 0.00 in/hr0.0 mm/hr 0.00 in0.0 mm
07:55 AM 21.6°F-5.8°C 4.1°F-15.5°C 46% Calm Calm -- 30.74 in1041.0 mb 0.00 in0.0 mm 0.00 in/hr0.0 mm/hr 0.00 in0.0 mm
07:54 AM 21.6°F-5.8°C 4.1°F-15.5°C 46% Calm Calm -- 30.74 in1041.0 mb 0.00 in0.0 mm 0.00 in/hr0.0 mm/hr 0.00 in0.0 mm
07:53 AM 21.6°F-5.8°C 4.1°F-15.5°C 46% Calm Calm -- 30.74 in1041.0 mb 0.00 in0.0 mm 0.00 in/hr0.0 mm/hr 0.00 in0.0 mm
07:51 AM 21.5°F-5.8°C 3.9°F-15.6°C 46% Calm Calm -- 30.74 in1041.0 mb 0.00 in0.0 mm 0.00 in/hr0.0 mm/hr 0.00 in0.0 mm
07:49 AM 21.5°F-5.8°C 3.9°F-15.6°C 46% Calm Calm -- 30.74 in1041.0 mb 0.00 in0.0 mm 0.00 in/hr0.0 mm/hr 0.00 in0.0 mm
07:48 AM 21.3°F-5.9°C 3.7°F-15.7°C 46% Calm Calm -- 30.74 in1041.0 mb 0.00 in0.0 mm 0.00 in/hr0.0 mm/hr 0.00 in0.0 mm
07:47 AM 21.3°F-5.9°C 3.7°F-15.7°C 46% Calm Calm -- 30.74 in1041.0 mb 0.00 in0.0 mm 0.00 in/hr0.0 mm/hr 0.00 in0.0 mm
07:45 AM 21.1°F-6.1°C 3.6°F-15.8°C 46% Calm Calm -- 30.74 in1041.0 mb 0.00 in0.0 mm 0.00 in/hr0.0 mm/hr 0.00 in0.0 mm
07:44 AM 20.9°F-6.2°C 3.4°F-15.9°C 46% Calm Calm -- 30.74 in1041.0 mb 0.00 in0.0 mm 0.00 in/hr0.0 mm/hr 0.00 in0.0 mm
07:42 AM 20.9°F-6.2°C 3.4°F-15.9°C 46% Calm Calm -- 30.74 in1041.0 mb 0.00 in0.0 mm 0.00 in/hr0.0 mm/hr 0.00 in0.0 mm
07:41 AM 20.9°F-6.2°C 3.4°F-15.9°C 46% Calm Calm -- 30.74 in1041.0 mb 0.00 in0.0 mm 0.00 in/hr0.0 mm/hr 0.00 in0.0 mm
07:40 AM 20.9°F-6.2°C 3.4°F-15.9°C 46% Calm Calm -- 30.74 in1041.0 mb 0.00 in0.0 mm 0.00 in/hr0.0 mm/hr 0.00 in0.0 mm
07:38 AM 20.7°F-6.3°C 3.2°F-16.0°C 46% Calm Calm -- 30.74 in1041.0 mb 0.00 in0.0 mm 0.00 in/hr0.0 mm/hr 0.00 in0.0 mm
07:37 AM 20.7°F-6.3°C 3.2°F-16.0°C 46% Calm Calm -- 30.74 in1041.0 mb 0.00 in0.0 mm 0.00 in/hr0.0 mm/hr 0.00 in0.0 mm
07:35 AM 20.6°F-6.3°C 3.1°F-16.1°C 46% Calm Calm -- 30.74 in1041.0 mb 0.00 in0.0 mm 0.00 in/hr0.0 mm/hr 0.00 in0.0 mm
07:34 AM 20.6°F-6.3°C 3.1°F-16.1°C 46% Calm Calm -- 30.74 in1041.0 mb 0.00 in0.0 mm 0.00 in/hr0.0 mm/hr 0.00 in0.0 mm
07:33 AM 20.4°F-6.4°C 2.9°F-16.2°C 46% Calm Calm -- 30.74 in1041.0 mb 0.00 in0.0 mm 0.00 in/hr0.0 mm/hr 0.00 in0.0 mm
07:32 AM 20.2°F-6.6°C 2.7°F-16.3°C 46% Calm Calm -- 30.74 in1041.0 mb 0.00 in0.0 mm 0.00 in/hr0.0 mm/hr 0.00 in0.0 mm
07:30 AM 20.2°F-6.6°C 2.7°F-16.3°C 46% Calm Calm -- 30.74 in1041.0 mb 0.00 in0.0 mm 0.00 in/hr0.0 mm/hr 0.00 in0.0 mm
07:29 AM 20.2°F-6.6°C 2.7°F-16.3°C 46% Calm Calm -- 30.74 in1041.0 mb 0.00 in0.0 mm 0.00 in/hr0.0 mm/hr 0.00 in0.0 mm
07:27 AM 20.2°F-6.6°C 2.7°F-16.3°C 46% Calm Calm -- 30.74 in1041.0 mb 0.00 in0.0 mm 0.00 in/hr0.0 mm/hr 0.00 in0.0 mm
07:26 AM 19.3°F-7.1°C 1.9°F-16.7°C 46% Calm Calm -- 30.74 in1041.0 mb 0.00 in0.0 mm 0.00 in/hr0.0 mm/hr 0.00 in0.0 mm
07:24 AM 19.3°F-7.1°C 1.9°F-16.7°C 46% Calm Calm -- 30.74 in1041.0 mb 0.00 in0.0 mm 0.00 in/hr0.0 mm/hr 0.00 in0.0 mm
07:23 AM 19.3°F-7.1°C 1.9°F-16.7°C 46% Calm Calm -- 30.74 in1041.0 mb 0.00 in0.0 mm 0.00 in/hr0.0 mm/hr 0.00 in0.0 mm
07:22 AM 19.3°F-7.1°C 1.9°F-16.7°C 46% Calm Calm -- 30.74 in1041.0 mb 0.00 in0.0 mm 0.00 in/hr0.0 mm/hr 0.00 in0.0 mm
07:20 AM 19.3°F-7.1°C 1.9°F-16.7°C 46% Calm Calm -- 30.74 in1041.0 mb 0.00 in0.0 mm 0.00 in/hr0.0 mm/hr 0.00 in0.0 mm
07:19 AM 19.3°F-7.1°C 1.9°F-16.7°C 46% Calm Calm -- 30.74 in1041.0 mb 0.00 in0.0 mm 0.00 in/hr0.0 mm/hr 0.00 in0.0 mm
07:17 AM 19.3°F-7.1°C 1.9°F-16.7°C 46% Calm Calm -- 30.74 in1041.0 mb 0.00 in0.0 mm 0.00 in/hr0.0 mm/hr 0.00 in0.0 mm
07:16 AM 19.3°F-7.1°C 1.9°F-16.7°C 46% Calm Calm -- 30.74 in1041.0 mb 0.00 in0.0 mm 0.00 in/hr0.0 mm/hr 0.00 in0.0 mm
07:14 AM 19.3°F-7.1°C 1.9°F-16.7°C 46% Calm Calm -- 30.74 in1041.0 mb 0.00 in0.0 mm 0.00 in/hr0.0 mm/hr 0.00 in0.0 mm
07:13 AM 19.3°F-7.1°C 1.9°F-16.7°C 46% Calm Calm -- 30.74 in1041.0 mb 0.00 in0.0 mm 0.00 in/hr0.0 mm/hr 0.00 in0.0 mm
07:12 AM 19.3°F-7.1°C 1.9°F-16.7°C 46% Calm Calm -- 30.74 in1041.0 mb 0.00 in0.0 mm 0.00 in/hr0.0 mm/hr 0.00 in0.0 mm
07:10 AM 19.3°F-7.1°C 1.9°F-16.7°C 46% Calm Calm -- 30.74 in1041.0 mb 0.00 in0.0 mm 0.00 in/hr0.0 mm/hr 0.00 in0.0 mm
07:09 AM 19.3°F-7.1°C 1.9°F-16.7°C 46% Calm Calm -- 30.74 in1041.0 mb 0.00 in0.0 mm 0.00 in/hr0.0 mm/hr 0.00 in0.0 mm
07:08 AM 19.3°F-7.1°C 1.9°F-16.7°C 46% Calm Calm -- 30.74 in1041.0 mb 0.00 in0.0 mm 0.00 in/hr0.0 mm/hr 0.00 in0.0 mm
07:06 AM 19.3°F-7.1°C 1.9°F-16.7°C 46% Calm Calm -- 30.74 in1041.0 mb 0.00 in0.0 mm 0.00 in/hr0.0 mm/hr 0.00 in0.0 mm
07:05 AM 19.3°F-7.1°C 1.9°F-16.7°C 46% Calm Calm -- 30.74 in1041.0 mb 0.00 in0.0 mm 0.00 in/hr0.0 mm/hr 0.00 in0.0 mm
07:03 AM 19.3°F-7.1°C 1.9°F-16.7°C 46% Calm Calm -- 30.74 in1041.0 mb 0.00 in0.0 mm 0.00 in/hr0.0 mm/hr 0.00 in0.0 mm
07:02 AM 19.3°F-7.1°C 1.9°F-16.7°C 46% Calm Calm -- 30.74 in1041.0 mb 0.00 in0.0 mm 0.00 in/hr0.0 mm/hr 0.00 in0.0 mm
07:00 AM 18.8°F-7.3°C 1.4°F-17.0°C 46% Calm Calm -- 30.74 in1041.0 mb 0.00 in0.0 mm 0.00 in/hr0.0 mm/hr 0.00 in0.0 mm
06:59 AM 18.8°F-7.3°C 1.4°F-17.0°C 46% Calm Calm -- 30.74 in1041.0 mb 0.00 in0.0 mm 0.00 in/hr0.0 mm/hr 0.00 in0.0 mm
06:58 AM 18.8°F-7.3°C 1.4°F-17.0°C 46% Calm Calm -- 30.74 in1041.0 mb 0.00 in0.0 mm 0.00 in/hr0.0 mm/hr 0.00 in0.0 mm
06:56 AM 18.8°F-7.3°C 1.4°F-17.0°C 46% Calm Calm -- 30.74 in1041.0 mb 0.00 in0.0 mm 0.00 in/hr0.0 mm/hr 0.00 in0.0 mm
06:55 AM 18.8°F-7.3°C 1.4°F-17.0°C 46% Calm Calm -- 30.74 in1041.0 mb 0.00 in0.0 mm 0.00 in/hr0.0 mm/hr 0.00 in0.0 mm
06:53 AM 18.8°F-7.3°C 1.4°F-17.0°C 46% Calm Calm -- 30.74 in1041.0 mb 0.00 in0.0 mm 0.00 in/hr0.0 mm/hr 0.00 in0.0 mm
06:52 AM 18.8°F-7.3°C 1.4°F-17.0°C 46% Calm Calm -- 30.74 in1041.0 mb 0.00 in0.0 mm 0.00 in/hr0.0 mm/hr 0.00 in0.0 mm
06:51 AM 18.8°F-7.3°C 1.4°F-17.0°C 46% Calm Calm -- 30.74 in1041.0 mb 0.00 in0.0 mm 0.00 in/hr0.0 mm/hr 0.00 in0.0 mm
06:49 AM 18.8°F-7.3°C 1.4°F-17.0°C 46% Calm Calm -- 30.74 in1041.0 mb 0.00 in0.0 mm 0.00 in/hr0.0 mm/hr 0.00 in0.0 mm
06:48 AM 18.8°F-7.3°C 1.4°F-17.0°C 46% Calm Calm -- 30.74 in1041.0 mb 0.00 in0.0 mm 0.00 in/hr0.0 mm/hr 0.00 in0.0 mm
06:47 AM 18.8°F-7.3°C 1.4°F-17.0°C 46% Calm Calm -- 30.77 in1042.0 mb 0.00 in0.0 mm 0.00 in/hr0.0 mm/hr 0.00 in0.0 mm
06:45 AM 18.8°F-7.3°C 1.4°F-17.0°C 46% Calm Calm -- 30.77 in1042.0 mb 0.00 in0.0 mm 0.00 in/hr0.0 mm/hr 0.00 in0.0 mm
06:44 AM 18.8°F-7.3°C 1.4°F-17.0°C 46% Calm Calm -- 30.77 in1042.0 mb 0.00 in0.0 mm 0.00 in/hr0.0 mm/hr 0.00 in0.0 mm
06:42 AM 18.8°F-7.3°C 1.4°F-17.0°C 46% Calm Calm -- 30.77 in1042.0 mb 0.00 in0.0 mm 0.00 in/hr0.0 mm/hr 0.00 in0.0 mm
06:41 AM 18.8°F-7.3°C 1.4°F-17.0°C 46% Calm Calm -- 30.77 in1042.0 mb 0.00 in0.0 mm 0.00 in/hr0.0 mm/hr 0.00 in0.0 mm
06:39 AM 18.2°F-7.7°C 0.9°F-17.3°C 46% Calm Calm -- 30.77 in1042.0 mb 0.00 in0.0 mm 0.00 in/hr0.0 mm/hr 0.00 in0.0 mm
06:37 AM 18.2°F-7.7°C 0.9°F-17.3°C 46% Calm Calm -- 30.77 in1042.0 mb 0.00 in0.0 mm 0.00 in/hr0.0 mm/hr 0.00 in0.0 mm
06:35 AM 18.2°F-7.7°C 0.9°F-17.3°C 46% Calm Calm -- 30.77 in1042.0 mb 0.00 in0.0 mm 0.00 in/hr0.0 mm/hr 0.00 in0.0 mm
06:34 AM 18.2°F-7.7°C 0.9°F-17.3°C 46% Calm Calm -- 30.77 in1042.0 mb 0.00 in0.0 mm 0.00 in/hr0.0 mm/hr 0.00 in0.0 mm
06:32 AM 18.2°F-7.7°C 0.9°F-17.3°C 46% Calm Calm -- 30.77 in1042.0 mb 0.00 in0.0 mm 0.00 in/hr0.0 mm/hr 0.00 in0.0 mm
06:31 AM 18.2°F-7.7°C 0.9°F-17.3°C 46% Calm Calm -- 30.77 in1042.0 mb 0.00 in0.0 mm 0.00 in/hr0.0 mm/hr 0.00 in0.0 mm
06:30 AM 18.2°F-7.7°C 0.9°F-17.3°C 46% Calm Calm -- 30.77 in1042.0 mb 0.00 in0.0 mm 0.00 in/hr0.0 mm/hr 0.00 in0.0 mm
06:28 AM 18.2°F-7.7°C 0.9°F-17.3°C 46% Calm Calm -- 30.77 in1042.0 mb 0.00 in0.0 mm 0.00 in/hr0.0 mm/hr 0.00 in0.0 mm
06:27 AM 18.2°F-7.7°C 0.9°F-17.3°C 46% Calm Calm -- 30.77 in1042.0 mb 0.00 in0.0 mm 0.00 in/hr0.0 mm/hr 0.00 in0.0 mm
06:25 AM 18.2°F-7.7°C 0.9°F-17.3°C 46% Calm Calm -- 30.77 in1042.0 mb 0.00 in0.0 mm 0.00 in/hr0.0 mm/hr 0.00 in0.0 mm
06:23 AM 18.0°F-7.8°C 0.8°F-17.3°C 46% Calm Calm -- 30.77 in1042.0 mb 0.00 in0.0 mm 0.00 in/hr0.0 mm/hr 0.00 in0.0 mm
06:21 AM 18.0°F-7.8°C 0.8°F-17.3°C 46% Calm Calm -- 30.77 in1042.0 mb 0.00 in0.0 mm 0.00 in/hr0.0 mm/hr 0.00 in0.0 mm
06:20 AM 18.0°F-7.8°C 0.8°F-17.3°C 46% Calm Calm -- 30.77 in1042.0 mb 0.00 in0.0 mm 0.00 in/hr0.0 mm/hr 0.00 in0.0 mm
06:18 AM 18.0°F-7.8°C 0.8°F-17.3°C 46% Calm Calm -- 30.77 in1042.0 mb 0.00 in0.0 mm 0.00 in/hr0.0 mm/hr 0.00 in0.0 mm
06:16 AM 18.0°F-7.8°C 0.8°F-17.3°C 46% Calm Calm -- 30.77 in1042.0 mb 0.00 in0.0 mm 0.00 in/hr0.0 mm/hr 0.00 in0.0 mm
06:14 AM 18.0°F-7.8°C 0.8°F-17.3°C 46% Calm Calm -- 30.77 in1042.0 mb 0.00 in0.0 mm 0.00 in/hr0.0 mm/hr 0.00 in0.0 mm
06:13 AM 18.0°F-7.8°C 0.8°F-17.3°C 46% Calm Calm -- 30.77 in1042.0 mb 0.00 in0.0 mm 0.00 in/hr0.0 mm/hr 0.00 in0.0 mm
06:12 AM 18.0°F-7.8°C 0.8°F-17.3°C 46% Calm Calm -- 30.77 in1042.0 mb 0.00 in0.0 mm 0.00 in/hr0.0 mm/hr 0.00 in0.0 mm
06:10 AM 18.0°F-7.8°C 0.8°F-17.3°C 46% Calm Calm -- 30.77 in1042.0 mb 0.00 in0.0 mm 0.00 in/hr0.0 mm/hr 0.00 in0.0 mm
06:09 AM 18.0°F-7.8°C 0.8°F-17.3°C 46% Calm Calm -- 30.77 in1042.0 mb 0.00 in0.0 mm 0.00 in/hr0.0 mm/hr 0.00 in0.0 mm
06:07 AM 18.0°F-7.8°C 0.8°F-17.3°C 46% Calm Calm -- 30.77 in1042.0 mb 0.00 in0.0 mm 0.00 in/hr0.0 mm/hr 0.00 in0.0 mm
06:06 AM 18.0°F-7.8°C 0.8°F-17.3°C 46% Calm Calm -- 30.77 in1042.0 mb 0.00 in0.0 mm 0.00 in/hr0.0 mm/hr 0.00 in0.0 mm
06:04 AM 18.0°F-7.8°C 0.8°F-17.3°C 46% Calm Calm -- 30.77 in1042.0 mb 0.00 in0.0 mm 0.00 in/hr0.0 mm/hr 0.00 in0.0 mm
06:03 AM 18.0°F-7.8°C 0.8°F-17.3°C 46% Calm Calm -- 30.77 in1042.0 mb 0.00 in0.0 mm 0.00 in/hr0.0 mm/hr 0.00 in0.0 mm
06:02 AM 18.0°F-7.8°C 0.8°F-17.3°C 46% Calm Calm -- 30.77 in1042.0 mb 0.00 in0.0 mm 0.00 in/hr0.0 mm/hr 0.00 in0.0 mm
06:00 AM 18.0°F-7.8°C 0.8°F-17.3°C 46% Calm Calm -- 30.77 in1042.0 mb 0.00 in0.0 mm 0.00 in/hr0.0 mm/hr 0.00 in0.0 mm
05:59 AM 18.0°F-7.8°C 0.8°F-17.3°C 46% Calm Calm -- 30.77 in1042.0 mb 0.00 in0.0 mm 0.00 in/hr0.0 mm/hr 0.00 in0.0 mm
05:57 AM 18.0°F-7.8°C 0.8°F-17.3°C 46% Calm Calm -- 30.77 in1042.0 mb 0.00 in0.0 mm 0.00 in/hr0.0 mm/hr 0.00 in0.0 mm
05:55 AM 18.0°F-7.8°C 0.8°F-17.3°C 46% Calm Calm -- 30.77 in1042.0 mb 0.00 in0.0 mm 0.00 in/hr0.0 mm/hr 0.00 in0.0 mm
05:54 AM 18.0°F-7.8°C 0.8°F-17.3°C 46% Calm Calm -- 30.77 in1042.0 mb 0.00 in0.0 mm 0.00 in/hr0.0 mm/hr 0.00 in0.0 mm
05:52 AM 18.0°F-7.8°C 0.8°F-17.3°C 46% Calm Calm -- 30.77 in1042.0 mb 0.00 in0.0 mm 0.00 in/hr0.0 mm/hr 0.00 in0.0 mm
05:50 AM 18.0°F-7.8°C 0.8°F-17.3°C 46% Calm Calm -- 30.77 in1042.0 mb 0.00 in0.0 mm 0.00 in/hr0.0 mm/hr 0.00 in0.0 mm
05:49 AM 18.0°F-7.8°C 0.8°F-17.3°C 46% Calm Calm -- 30.77 in1042.0 mb 0.00 in0.0 mm 0.00 in/hr0.0 mm/hr 0.00 in0.0 mm
05:48 AM 18.0°F-7.8°C 0.8°F-17.3°C 46% Calm Calm -- 30.77 in1042.0 mb 0.00 in0.0 mm 0.00 in/hr0.0 mm/hr 0.00 in0.0 mm
05:47 AM 17.9°F-7.8°C 0.6°F-17.4°C 46% Calm Calm -- 30.77 in1042.0 mb 0.00 in0.0 mm 0.00 in/hr0.0 mm/hr 0.00 in0.0 mm
05:45 AM 17.9°F-7.8°C 0.6°F-17.4°C 46% Calm Calm -- 30.77 in1042.0 mb 0.00 in0.0 mm 0.00 in/hr0.0 mm/hr 0.00 in0.0 mm
05:43 AM 17.9°F-7.8°C 0.6°F-17.4°C 46% Calm Calm -- 30.77 in1042.0 mb 0.00 in0.0 mm 0.00 in/hr0.0 mm/hr 0.00 in0.0 mm
05:42 AM 17.9°F-7.8°C 0.6°F-17.4°C 46% Calm Calm -- 30.77 in1042.0 mb 0.00 in0.0 mm 0.00 in/hr0.0 mm/hr 0.00 in0.0 mm
05:41 AM 17.9°F-7.8°C 0.6°F-17.4°C 46% Calm Calm -- 30.77 in1042.0 mb 0.00 in0.0 mm 0.00 in/hr0.0 mm/hr 0.00 in0.0 mm
05:39 AM 17.9°F-7.8°C 0.6°F-17.4°C 46% Calm Calm -- 30.77 in1042.0 mb 0.00 in0.0 mm 0.00 in/hr0.0 mm/hr 0.00 in0.0 mm
05:38 AM 17.9°F-7.8°C 0.6°F-17.4°C 46% Calm Calm -- 30.77 in1042.0 mb 0.00 in0.0 mm 0.00 in/hr0.0 mm/hr 0.00 in0.0 mm
05:37 AM 17.9°F-7.8°C 0.6°F-17.4°C 46% Calm Calm -- 30.77 in1042.0 mb 0.00 in0.0 mm 0.00 in/hr0.0 mm/hr 0.00 in0.0 mm
05:35 AM 17.9°F-7.8°C 0.6°F-17.4°C 46% Calm Calm -- 30.77 in1042.0 mb 0.00 in0.0 mm 0.00 in/hr0.0 mm/hr 0.00 in0.0 mm
05:34 AM 17.9°F-7.8°C 0.6°F-17.4°C 46% Calm Calm -- 30.77 in1042.0 mb 0.00 in0.0 mm 0.00 in/hr0.0 mm/hr 0.00 in0.0 mm
05:33 AM 17.9°F-7.8°C 0.6°F-17.4°C 46% Calm Calm -- 30.77 in1042.0 mb 0.00 in0.0 mm 0.00 in/hr0.0 mm/hr 0.00 in0.0 mm
05:31 AM 17.9°F-7.8°C 0.6°F-17.4°C 46% Calm Calm -- 30.77 in1042.0 mb 0.00 in0.0 mm 0.00 in/hr0.0 mm/hr 0.00 in0.0 mm
05:29 AM 17.5°F-8.1°C 0.7°F-17.4°C 47% Calm Calm -- 30.77 in1042.0 mb 0.00 in0.0 mm 0.00 in/hr0.0 mm/hr 0.00 in0.0 mm
05:28 AM 17.5°F-8.1°C 0.7°F-17.4°C 47% Calm Calm -- 30.77 in1042.0 mb 0.00 in0.0 mm 0.00 in/hr0.0 mm/hr 0.00 in0.0 mm
05:27 AM 17.5°F-8.1°C 0.7°F-17.4°C 47% Calm Calm -- 30.77 in1042.0 mb 0.00 in0.0 mm 0.00 in/hr0.0 mm/hr 0.00 in0.0 mm
05:25 AM 17.5°F-8.1°C 0.7°F-17.4°C 47% Calm Calm -- 30.77 in1042.0 mb 0.00 in0.0 mm 0.00 in/hr0.0 mm/hr 0.00 in0.0 mm
05:24 AM 17.5°F-8.1°C 0.7°F-17.4°C 47% Calm Calm -- 30.77 in1042.0 mb 0.00 in0.0 mm 0.00 in/hr0.0 mm/hr 0.00 in0.0 mm
05:22 AM 17.5°F-8.1°C 0.7°F-17.4°C 47% Calm Calm -- 30.77 in1042.0 mb 0.00 in0.0 mm 0.00 in/hr0.0 mm/hr 0.00 in0.0 mm
05:21 AM 17.5°F-8.1°C 0.7°F-17.4°C 47% Calm Calm -- 30.77 in1042.0 mb 0.00 in0.0 mm 0.00 in/hr0.0 mm/hr 0.00 in0.0 mm
05:20 AM 17.5°F-8.1°C 0.7°F-17.4°C 47% Calm Calm -- 30.77 in1042.0 mb 0.00 in0.0 mm 0.00 in/hr0.0 mm/hr 0.00 in0.0 mm
05:18 AM 17.5°F-8.1°C 0.7°F-17.4°C 47% Calm Calm -- 30.77 in1042.0 mb 0.00 in0.0 mm 0.00 in/hr0.0 mm/hr 0.00 in0.0 mm
05:17 AM 17.5°F-8.1°C 0.7°F-17.4°C 47% Calm Calm -- 30.77 in1042.0 mb 0.00 in0.0 mm 0.00 in/hr0.0 mm/hr 0.00 in0.0 mm
05:16 AM 17.5°F-8.1°C 0.7°F-17.4°C 47% Calm Calm -- 30.77 in1042.0 mb 0.00 in0.0 mm 0.00 in/hr0.0 mm/hr 0.00 in0.0 mm
05:14 AM 17.5°F-8.1°C 0.7°F-17.4°C 47% Calm Calm -- 30.77 in1042.0 mb 0.00 in0.0 mm 0.00 in/hr0.0 mm/hr 0.00 in0.0 mm
05:13 AM 17.5°F-8.1°C 0.7°F-17.4°C 47% Calm Calm -- 30.77 in1042.0 mb 0.00 in0.0 mm 0.00 in/hr0.0 mm/hr 0.00 in0.0 mm
05:11 AM 17.5°F-8.1°C 0.7°F-17.4°C 47% Calm Calm -- 30.77 in1042.0 mb 0.00 in0.0 mm 0.00 in/hr0.0 mm/hr 0.00 in0.0 mm
05:10 AM 17.5°F-8.1°C 0.7°F-17.4°C 47% Calm Calm -- 30.77 in1042.0 mb 0.00 in0.0 mm 0.00 in/hr0.0 mm/hr 0.00 in0.0 mm
05:09 AM 17.5°F-8.1°C 0.7°F-17.4°C 47% Calm Calm -- 30.77 in1042.0 mb 0.00 in0.0 mm 0.00 in/hr0.0 mm/hr 0.00 in0.0 mm
05:08 AM 17.5°F-8.1°C 0.7°F-17.4°C 47% Calm Calm -- 30.77 in1042.0 mb 0.00 in0.0 mm 0.00 in/hr0.0 mm/hr 0.00 in0.0 mm
05:06 AM 16.8°F-8.4°C 0.1°F-17.7°C 47% Calm Calm -- 30.77 in1042.0 mb 0.00 in0.0 mm 0.00 in/hr0.0 mm/hr 0.00 in0.0 mm
05:04 AM 16.8°F-8.4°C 0.1°F-17.7°C 47% Calm Calm -- 30.77 in1042.0 mb 0.00 in0.0 mm 0.00 in/hr0.0 mm/hr 0.00 in0.0 mm
05:03 AM 16.8°F-8.4°C 0.1°F-17.7°C 47% Calm Calm -- 30.77 in1042.0 mb 0.00 in0.0 mm 0.00 in/hr0.0 mm/hr 0.00 in0.0 mm
05:01 AM 16.8°F-8.4°C 0.1°F-17.7°C 47% Calm Calm -- 30.77 in1042.0 mb 0.00 in0.0 mm 0.00 in/hr0.0 mm/hr 0.00 in0.0 mm
05:00 AM 16.8°F-8.4°C 0.1°F-17.7°C 47% Calm Calm -- 30.77 in1042.0 mb 0.00 in0.0 mm 0.00 in/hr0.0 mm/hr 0.00 in0.0 mm
04:59 AM 16.8°F-8.4°C 0.1°F-17.7°C 47% Calm Calm -- 30.77 in1042.0 mb 0.00 in0.0 mm 0.00 in/hr0.0 mm/hr 0.00 in0.0 mm
04:57 AM 16.8°F-8.4°C 0.1°F-17.7°C 47% Calm Calm -- 30.77 in1042.0 mb 0.00 in0.0 mm 0.00 in/hr0.0 mm/hr 0.00 in0.0 mm
04:56 AM 16.8°F-8.4°C 0.1°F-17.7°C 47% Calm Calm -- 30.77 in1042.0 mb 0.00 in0.0 mm 0.00 in/hr0.0 mm/hr 0.00 in0.0 mm
04:54 AM 16.8°F-8.4°C 0.1°F-17.7°C 47% Calm Calm -- 30.77 in1042.0 mb 0.00 in0.0 mm 0.00 in/hr0.0 mm/hr 0.00 in0.0 mm
04:53 AM 16.8°F-8.4°C 0.1°F-17.7°C 47% Calm Calm -- 30.77 in1042.0 mb 0.00 in0.0 mm 0.00 in/hr0.0 mm/hr 0.00 in0.0 mm
04:52 AM 16.8°F-8.4°C 0.1°F-17.7°C 47% Calm Calm -- 30.77 in1042.0 mb 0.00 in0.0 mm 0.00 in/hr0.0 mm/hr 0.00 in0.0 mm
04:50 AM 16.8°F-8.4°C 0.1°F-17.7°C 47% Calm Calm -- 30.77 in1042.0 mb 0.00 in0.0 mm 0.00 in/hr0.0 mm/hr 0.00 in0.0 mm
04:49 AM 16.8°F-8.4°C 0.1°F-17.7°C 47% Calm Calm -- 30.77 in1042.0 mb 0.00 in0.0 mm 0.00 in/hr0.0 mm/hr 0.00 in0.0 mm
04:48 AM 16.8°F-8.4°C 0.1°F-17.7°C 47% Calm Calm -- 30.77 in1042.0 mb 0.00 in0.0 mm 0.00 in/hr0.0 mm/hr 0.00 in0.0 mm
04:46 AM 16.8°F-8.4°C 0.1°F-17.7°C 47% Calm Calm -- 30.77 in1042.0 mb 0.00 in0.0 mm 0.00 in/hr0.0 mm/hr 0.00 in0.0 mm
04:45 AM 16.8°F-8.4°C 0.1°F-17.7°C 47% Calm Calm -- 30.77 in1042.0 mb 0.00 in0.0 mm 0.00 in/hr0.0 mm/hr 0.00 in0.0 mm
04:43 AM 16.8°F-8.4°C 0.1°F-17.7°C 47% Calm Calm -- 30.77 in1042.0 mb 0.00 in0.0 mm 0.00 in/hr0.0 mm/hr 0.00 in0.0 mm
04:42 AM 16.8°F-8.4°C 0.1°F-17.7°C 47% Calm Calm -- 30.77 in1042.0 mb 0.00 in0.0 mm 0.00 in/hr0.0 mm/hr 0.00 in0.0 mm
04:41 AM 15.5°F-9.2°C -1.1°F-18.4°C 47% Calm Calm -- 30.77 in1042.0 mb 0.00 in0.0 mm 0.00 in/hr0.0 mm/hr 0.00 in0.0 mm
04:40 AM 15.5°F-9.2°C -1.1°F-18.4°C 47% Calm Calm -- 30.77 in1042.0 mb 0.00 in0.0 mm 0.00 in/hr0.0 mm/hr 0.00 in0.0 mm
04:38 AM 15.5°F-9.2°C -1.1°F-18.4°C 47% Calm Calm -- 30.77 in1042.0 mb 0.00 in0.0 mm 0.00 in/hr0.0 mm/hr 0.00 in0.0 mm
04:36 AM 15.5°F-9.2°C -1.1°F-18.4°C 47% Calm Calm -- 30.77 in1042.0 mb 0.00 in0.0 mm 0.00 in/hr0.0 mm/hr 0.00 in0.0 mm
04:35 AM 15.5°F-9.2°C -1.1°F-18.4°C 47% Calm Calm -- 30.77 in1042.0 mb 0.00 in0.0 mm 0.00 in/hr0.0 mm/hr 0.00 in0.0 mm
04:33 AM 15.5°F-9.2°C -1.1°F-18.4°C 47% Calm Calm -- 30.77 in1042.0 mb 0.00 in0.0 mm 0.00 in/hr0.0 mm/hr 0.00 in0.0 mm
04:32 AM 15.5°F-9.2°C -1.1°F-18.4°C 47% Calm Calm -- 30.77 in1042.0 mb 0.00 in0.0 mm 0.00 in/hr0.0 mm/hr 0.00 in0.0 mm
04:31 AM 15.5°F-9.2°C -1.1°F-18.4°C 47% Calm Calm -- 30.77 in1042.0 mb 0.00 in0.0 mm 0.00 in/hr0.0 mm/hr 0.00 in0.0 mm
04:29 AM 15.5°F-9.2°C -1.1°F-18.4°C 47% Calm Calm -- 30.77 in1042.0 mb 0.00 in0.0 mm 0.00 in/hr0.0 mm/hr 0.00 in0.0 mm
04:28 AM 15.5°F-9.2°C -1.1°F-18.4°C 47% Calm Calm -- 30.77 in1042.0 mb 0.00 in0.0 mm 0.00 in/hr0.0 mm/hr 0.00 in0.0 mm
04:26 AM 15.5°F-9.2°C -1.1°F-18.4°C 47% Calm Calm -- 30.77 in1042.0 mb 0.00 in0.0 mm 0.00 in/hr0.0 mm/hr 0.00 in0.0 mm
04:25 AM 15.5°F-9.2°C -1.1°F-18.4°C 47% Calm Calm -- 30.77 in1042.0 mb 0.00 in0.0 mm 0.00 in/hr0.0 mm/hr 0.00 in0.0 mm
04:24 AM 15.5°F-9.2°C -1.1°F-18.4°C 47% Calm Calm -- 30.77 in1042.0 mb 0.00 in0.0 mm 0.00 in/hr0.0 mm/hr 0.00 in0.0 mm
04:22 AM 15.5°F-9.2°C -1.1°F-18.4°C 47% Calm Calm -- 30.77 in1042.0 mb 0.00 in0.0 mm 0.00 in/hr0.0 mm/hr 0.00 in0.0 mm
04:21 AM 15.5°F-9.2°C -1.1°F-18.4°C 47% Calm Calm -- 30.77 in1042.0 mb 0.00 in0.0 mm 0.00 in/hr0.0 mm/hr 0.00 in0.0 mm
04:19 AM 14.8°F-9.6°C -1.3°F-18.5°C 48% Calm Calm -- 30.77 in1042.0 mb 0.00 in0.0 mm 0.00 in/hr0.0 mm/hr 0.00 in0.0 mm
04:17 AM 14.8°F-9.6°C -1.3°F-18.5°C 48% Calm Calm -- 30.77 in1042.0 mb 0.00 in0.0 mm 0.00 in/hr0.0 mm/hr 0.00 in0.0 mm
04:15 AM 14.8°F-9.6°C -1.3°F-18.5°C 48% Calm Calm -- 30.77 in1042.0 mb 0.00 in0.0 mm 0.00 in/hr0.0 mm/hr 0.00 in0.0 mm
04:14 AM 14.8°F-9.6°C -1.3°F-18.5°C 48% Calm Calm -- 30.77 in1042.0 mb 0.00 in0.0 mm 0.00 in/hr0.0 mm/hr 0.00 in0.0 mm
04:13 AM 14.8°F-9.6°C -1.3°F-18.5°C 48% Calm Calm -- 30.77 in1042.0 mb 0.00 in0.0 mm 0.00 in/hr0.0 mm/hr 0.00 in0.0 mm
04:12 AM 14.8°F-9.6°C -1.3°F-18.5°C 48% Calm Calm -- 30.77 in1042.0 mb 0.00 in0.0 mm 0.00 in/hr0.0 mm/hr 0.00 in0.0 mm
04:11 AM 14.8°F-9.6°C -1.3°F-18.5°C 48% Calm Calm -- 30.77 in1042.0 mb 0.00 in0.0 mm 0.00 in/hr0.0 mm/hr 0.00 in0.0 mm
04:10 AM 14.8°F-9.6°C -1.3°F-18.5°C 48% Calm Calm -- 30.77 in1042.0 mb 0.00 in0.0 mm 0.00 in/hr0.0 mm/hr 0.00 in0.0 mm
04:08 AM 14.8°F-9.6°C -1.3°F-18.5°C 48% Calm Calm -- 30.77 in1042.0 mb 0.00 in0.0 mm 0.00 in/hr0.0 mm/hr 0.00 in0.0 mm
04:07 AM 14.8°F-9.6°C -1.3°F-18.5°C 48% Calm Calm -- 30.77 in1042.0 mb 0.00 in0.0 mm 0.00 in/hr0.0 mm/hr 0.00 in0.0 mm
04:06 AM 14.8°F-9.6°C -1.3°F-18.5°C 48% Calm Calm -- 30.77 in1042.0 mb 0.00 in0.0 mm 0.00 in/hr0.0 mm/hr 0.00 in0.0 mm
04:04 AM 14.8°F-9.6°C -1.3°F-18.5°C 48% Calm Calm -- 30.77 in1042.0 mb 0.00 in0.0 mm 0.00 in/hr0.0 mm/hr 0.00 in0.0 mm
04:03 AM 14.4°F-9.8°C -2.1°F-18.9°C 47% Calm Calm -- 30.77 in1042.0 mb 0.00 in0.0 mm 0.00 in/hr0.0 mm/hr 0.00 in0.0 mm
04:01 AM 14.4°F-9.8°C -2.1°F-18.9°C 47% Calm Calm -- 30.77 in1042.0 mb 0.00 in0.0 mm 0.00 in/hr0.0 mm/hr 0.00 in0.0 mm
04:00 AM 14.4°F-9.8°C -2.1°F-18.9°C 47% Calm Calm -- 30.77 in1042.0 mb 0.00 in0.0 mm 0.00 in/hr0.0 mm/hr 0.00 in0.0 mm
03:58 AM 14.4°F-9.8°C -2.1°F-18.9°C 47% Calm Calm -- 30.77 in1042.0 mb 0.00 in0.0 mm 0.00 in/hr0.0 mm/hr 0.00 in0.0 mm
03:56 AM 13.4°F-10.3°C -3.1°F-19.5°C 47% Calm Calm -- 30.77 in1042.0 mb 0.00 in0.0 mm 0.00 in/hr0.0 mm/hr 0.00 in0.0 mm
03:54 AM 13.4°F-10.3°C -3.1°F-19.5°C 47% Calm Calm -- 30.77 in1042.0 mb 0.00 in0.0 mm 0.00 in/hr0.0 mm/hr 0.00 in0.0 mm
03:53 AM 13.4°F-10.3°C -3.1°F-19.5°C 47% Calm Calm -- 30.77 in1042.0 mb 0.00 in0.0 mm 0.00 in/hr0.0 mm/hr 0.00 in0.0 mm
03:51 AM 13.4°F-10.3°C -3.1°F-19.5°C 47% Calm Calm -- 30.77 in1042.0 mb 0.00 in0.0 mm 0.00 in/hr0.0 mm/hr 0.00 in0.0 mm
03:50 AM 13.4°F-10.3°C -3.1°F-19.5°C 47% Calm Calm -- 30.77 in1042.0 mb 0.00 in0.0 mm 0.00 in/hr0.0 mm/hr 0.00 in0.0 mm
03:49 AM 13.4°F-10.3°C -3.1°F-19.5°C 47% Calm Calm -- 30.77 in1042.0 mb 0.00 in0.0 mm 0.00 in/hr0.0 mm/hr 0.00 in0.0 mm
03:47 AM 13.4°F-10.3°C -3.1°F-19.5°C 47% Calm Calm -- 30.77 in1042.0 mb 0.00 in0.0 mm 0.00 in/hr0.0 mm/hr 0.00 in0.0 mm
03:46 AM 13.4°F-10.3°C -3.1°F-19.5°C 47% Calm Calm -- 30.77 in1042.0 mb 0.00 in0.0 mm 0.00 in/hr0.0 mm/hr 0.00 in0.0 mm
03:44 AM 13.4°F-10.3°C -3.1°F-19.5°C 47% Calm Calm -- 30.77 in1042.0 mb 0.00 in0.0 mm 0.00 in/hr0.0 mm/hr 0.00 in0.0 mm
03:43 AM 13.4°F-10.3°C -3.1°F-19.5°C 47% Calm Calm -- 30.77 in1042.0 mb 0.00 in0.0 mm 0.00 in/hr0.0 mm/hr 0.00 in0.0 mm
03:42 AM 13.4°F-10.3°C -3.1°F-19.5°C 47% Calm Calm -- 30.77 in1042.0 mb 0.00 in0.0 mm 0.00 in/hr0.0 mm/hr 0.00 in0.0 mm
03:41 AM 13.4°F-10.3°C -3.1°F-19.5°C 47% Calm Calm -- 30.77 in1042.0 mb 0.00 in0.0 mm 0.00 in/hr0.0 mm/hr 0.00 in0.0 mm
03:39 AM 13.4°F-10.3°C -3.1°F-19.5°C 47% Calm Calm -- 30.77 in1042.0 mb 0.00 in0.0 mm 0.00 in/hr0.0 mm/hr 0.00 in0.0 mm
03:38 AM 13.4°F-10.3°C -3.1°F-19.5°C 47% Calm Calm -- 30.77 in1042.0 mb 0.00 in0.0 mm 0.00 in/hr0.0 mm/hr 0.00 in0.0 mm
03:36 AM 13.4°F-10.3°C -3.1°F-19.5°C 47% Calm Calm -- 30.80 in1043.0 mb 0.00 in0.0 mm 0.00 in/hr0.0 mm/hr 0.00 in0.0 mm
03:35 AM 13.4°F-10.3°C -3.1°F-19.5°C 47% Calm Calm -- 30.80 in1043.0 mb 0.00 in0.0 mm 0.00 in/hr0.0 mm/hr 0.00 in0.0 mm
03:34 AM 13.4°F-10.3°C -3.1°F-19.5°C 47% Calm Calm -- 30.80 in1043.0 mb 0.00 in0.0 mm 0.00 in/hr0.0 mm/hr 0.00 in0.0 mm
03:32 AM 13.2°F-10.4°C -3.3°F-19.6°C 47% Calm Calm -- 30.80 in1043.0 mb 0.00 in0.0 mm 0.00 in/hr0.0 mm/hr 0.00 in0.0 mm
03:30 AM 13.2°F-10.4°C -3.3°F-19.6°C 47% Calm Calm -- 30.80 in1043.0 mb 0.00 in0.0 mm 0.00 in/hr0.0 mm/hr 0.00 in0.0 mm
03:29 AM 13.2°F-10.4°C -3.3°F-19.6°C 47% Calm Calm -- 30.80 in1043.0 mb 0.00 in0.0 mm 0.00 in/hr0.0 mm/hr 0.00 in0.0 mm
03:28 AM 13.2°F-10.4°C -3.3°F-19.6°C 47% Calm Calm -- 30.80 in1043.0 mb 0.00 in0.0 mm 0.00 in/hr0.0 mm/hr 0.00 in0.0 mm
03:26 AM 13.0°F-10.6°C -3.0°F-19.4°C 48% Calm Calm -- 30.80 in1043.0 mb 0.00 in0.0 mm 0.00 in/hr0.0 mm/hr 0.00 in0.0 mm
03:25 AM 13.0°F-10.6°C -3.0°F-19.4°C 48% Calm Calm -- 30.80 in1043.0 mb 0.00 in0.0 mm 0.00 in/hr0.0 mm/hr 0.00 in0.0 mm
03:23 AM 13.0°F-10.6°C -3.0°F-19.4°C 48% Calm Calm -- 30.80 in1043.0 mb 0.00 in0.0 mm 0.00 in/hr0.0 mm/hr 0.00 in0.0 mm
03:22 AM 13.0°F-10.6°C -3.0°F-19.4°C 48% Calm Calm -- 30.80 in1043.0 mb 0.00 in0.0 mm 0.00 in/hr0.0 mm/hr 0.00 in0.0 mm
03:21 AM 13.0°F-10.6°C -3.0°F-19.4°C 48% Calm Calm -- 30.80 in1043.0 mb 0.00 in0.0 mm 0.00 in/hr0.0 mm/hr 0.00 in0.0 mm
03:19 AM 13.0°F-10.6°C -3.0°F-19.4°C 48% Calm Calm -- 30.80 in1043.0 mb 0.00 in0.0 mm 0.00 in/hr0.0 mm/hr 0.00 in0.0 mm
03:18 AM 13.2°F-10.4°C -3.3°F-19.6°C 47% Calm Calm -- 30.80 in1043.0 mb 0.00 in0.0 mm 0.00 in/hr0.0 mm/hr 0.00 in0.0 mm
03:16 AM 13.2°F-10.4°C -3.3°F-19.6°C 47% Calm Calm -- 30.80 in1043.0 mb 0.00 in0.0 mm 0.00 in/hr0.0 mm/hr 0.00 in0.0 mm
03:15 AM 13.2°F-10.4°C -3.3°F-19.6°C 47% Calm Calm -- 30.80 in1043.0 mb 0.00 in0.0 mm 0.00 in/hr0.0 mm/hr 0.00 in0.0 mm
03:14 AM 13.2°F-10.4°C -3.3°F-19.6°C 47% Calm Calm -- 30.80 in1043.0 mb 0.00 in0.0 mm 0.00 in/hr0.0 mm/hr 0.00 in0.0 mm
03:13 AM 13.2°F-10.4°C -3.3°F-19.6°C 47% Calm Calm -- 30.80 in1043.0 mb 0.00 in0.0 mm 0.00 in/hr0.0 mm/hr 0.00 in0.0 mm
03:11 AM 13.2°F-10.4°C -3.3°F-19.6°C 47% Calm Calm -- 30.80 in1043.0 mb 0.00 in0.0 mm 0.00 in/hr0.0 mm/hr 0.00 in0.0 mm
03:10 AM 13.2°F-10.4°C -3.3°F-19.6°C 47% Calm Calm -- 30.80 in1043.0 mb 0.00 in0.0 mm 0.00 in/hr0.0 mm/hr 0.00 in0.0 mm
03:08 AM 13.0°F-10.6°C -3.0°F-19.4°C 48% Calm Calm -- 30.80 in1043.0 mb 0.00 in0.0 mm 0.00 in/hr0.0 mm/hr 0.00 in0.0 mm
03:07 AM 13.0°F-10.6°C -3.0°F-19.4°C 48% Calm Calm -- 30.80 in1043.0 mb 0.00 in0.0 mm 0.00 in/hr0.0 mm/hr 0.00 in0.0 mm
03:05 AM 13.0°F-10.6°C -3.0°F-19.4°C 48% Calm Calm -- 30.80 in1043.0 mb 0.00 in0.0 mm 0.00 in/hr0.0 mm/hr 0.00 in0.0 mm
03:04 AM 13.0°F-10.6°C -3.0°F-19.4°C 48% Calm Calm -- 30.80 in1043.0 mb 0.00 in0.0 mm 0.00 in/hr0.0 mm/hr 0.00 in0.0 mm
03:03 AM 13.0°F-10.6°C -3.0°F-19.4°C 48% Calm Calm -- 30.80 in1043.0 mb 0.00 in0.0 mm 0.00 in/hr0.0 mm/hr 0.00 in0.0 mm
03:01 AM 13.0°F-10.6°C -3.0°F-19.4°C 48% Calm Calm -- 30.80 in1043.0 mb 0.00 in0.0 mm 0.00 in/hr0.0 mm/hr 0.00 in0.0 mm
03:00 AM 13.0°F-10.6°C -3.0°F-19.4°C 48% Calm Calm -- 30.80 in1043.0 mb 0.00 in0.0 mm 0.00 in/hr0.0 mm/hr 0.00 in0.0 mm
02:58 AM 13.0°F-10.6°C -3.0°F-19.4°C 48% Calm Calm -- 30.77 in1042.0 mb 0.00 in0.0 mm 0.00 in/hr0.0 mm/hr 0.00 in0.0 mm
02:57 AM 13.0°F-10.6°C -3.0°F-19.4°C 48% Calm Calm -- 30.77 in1042.0 mb 0.00 in0.0 mm 0.00 in/hr0.0 mm/hr 0.00 in0.0 mm
02:56 AM 13.0°F-10.6°C -3.0°F-19.4°C 48% Calm Calm -- 30.77 in1042.0 mb 0.00 in0.0 mm 0.00 in/hr0.0 mm/hr 0.00 in0.0 mm
02:54 AM 13.0°F-10.6°C -3.0°F-19.4°C 48% Calm Calm -- 30.77 in1042.0 mb 0.00 in0.0 mm 0.00 in/hr0.0 mm/hr 0.00 in0.0 mm
02:53 AM 13.0°F-10.6°C -3.0°F-19.4°C 48% Calm Calm -- 30.77 in1042.0 mb 0.00 in0.0 mm 0.00 in/hr0.0 mm/hr 0.00 in0.0 mm
02:52 AM 13.0°F-10.6°C -3.0°F-19.4°C 48% Calm Calm -- 30.77 in1042.0 mb 0.00 in0.0 mm 0.00 in/hr0.0 mm/hr 0.00 in0.0 mm
02:50 AM 12.8°F-10.7°C -3.2°F-19.6°C 48% Calm Calm -- 30.77 in1042.0 mb 0.00 in0.0 mm 0.00 in/hr0.0 mm/hr 0.00 in0.0 mm
02:49 AM 12.8°F-10.7°C -3.2°F-19.6°C 48% Calm Calm -- 30.77 in1042.0 mb 0.00 in0.0 mm 0.00 in/hr0.0 mm/hr 0.00 in0.0 mm
02:47 AM 12.8°F-10.7°C -3.2°F-19.6°C 48% Calm Calm -- 30.77 in1042.0 mb 0.00 in0.0 mm 0.00 in/hr0.0 mm/hr 0.00 in0.0 mm
02:46 AM 13.0°F-10.6°C -3.0°F-19.4°C 48% Calm Calm -- 30.77 in1042.0 mb 0.00 in0.0 mm 0.00 in/hr0.0 mm/hr 0.00 in0.0 mm
02:45 AM 13.0°F-10.6°C -3.0°F-19.4°C 48% Calm Calm -- 30.77 in1042.0 mb 0.00 in0.0 mm 0.00 in/hr0.0 mm/hr 0.00 in0.0 mm
02:44 AM 13.0°F-10.6°C -3.0°F-19.4°C 48% Calm Calm -- 30.77 in1042.0 mb 0.00 in0.0 mm 0.00 in/hr0.0 mm/hr 0.00 in0.0 mm
02:43 AM 13.0°F-10.6°C -3.0°F-19.4°C 48% Calm Calm -- 30.77 in1042.0 mb 0.00 in0.0 mm 0.00 in/hr0.0 mm/hr 0.00 in0.0 mm
02:42 AM 12.8°F-10.7°C -3.2°F-19.6°C 48% Calm Calm -- 30.77 in1042.0 mb 0.00 in0.0 mm 0.00 in/hr0.0 mm/hr 0.00 in0.0 mm
02:41 AM 12.8°F-10.7°C -3.2°F-19.6°C 48% Calm Calm -- 30.77 in1042.0 mb 0.00 in0.0 mm 0.00 in/hr0.0 mm/hr 0.00 in0.0 mm
02:40 AM 12.8°F-10.7°C -3.2°F-19.6°C 48% Calm Calm -- 30.80 in1043.0 mb 0.00 in0.0 mm 0.00 in/hr0.0 mm/hr 0.00 in0.0 mm
02:37 AM 12.8°F-10.7°C -3.2°F-19.6°C 48% Calm Calm -- 30.80 in1043.0 mb 0.00 in0.0 mm 0.00 in/hr0.0 mm/hr 0.00 in0.0 mm
02:36 AM 12.8°F-10.7°C -3.2°F-19.6°C 48% Calm Calm -- 30.80 in1043.0 mb 0.00 in0.0 mm 0.00 in/hr0.0 mm/hr 0.00 in0.0 mm
02:35 AM 12.8°F-10.7°C -3.2°F-19.6°C 48% Calm Calm -- 30.80 in1043.0 mb 0.00 in0.0 mm 0.00 in/hr0.0 mm/hr 0.00 in0.0 mm
02:34 AM 12.8°F-10.7°C -3.2°F-19.6°C 48% Calm Calm -- 30.80 in1043.0 mb 0.00 in0.0 mm 0.00 in/hr0.0 mm/hr 0.00 in0.0 mm
02:32 AM 12.8°F-10.7°C -3.2°F-19.6°C 48% Calm Calm -- 30.80 in1043.0 mb 0.00 in0.0 mm 0.00 in/hr0.0 mm/hr 0.00 in0.0 mm
02:31 AM 12.8°F-10.7°C -3.2°F-19.6°C 48% Calm Calm -- 30.80 in1043.0 mb 0.00 in0.0 mm 0.00 in/hr0.0 mm/hr 0.00 in0.0 mm
02:30 AM 12.8°F-10.7°C -3.2°F-19.6°C 48% Calm Calm -- 30.80 in1043.0 mb 0.00 in0.0 mm 0.00 in/hr0.0 mm/hr 0.00 in0.0 mm
02:29 AM 12.8°F-10.7°C -3.2°F-19.6°C 48% Calm Calm -- 30.80 in1043.0 mb 0.00 in0.0 mm 0.00 in/hr0.0 mm/hr 0.00 in0.0 mm
02:28 AM 12.8°F-10.7°C -3.2°F-19.6°C 48% Calm Calm -- 30.80 in1043.0 mb 0.00 in0.0 mm 0.00 in/hr0.0 mm/hr 0.00 in0.0 mm
02:27 AM 12.8°F-10.7°C -3.2°F-19.6°C 48% Calm Calm -- 30.80 in1043.0 mb 0.00 in0.0 mm 0.00 in/hr0.0 mm/hr 0.00 in0.0 mm
02:26 AM 12.8°F-10.7°C -3.2°F-19.6°C 48% Calm Calm -- 30.80 in1043.0 mb 0.00 in0.0 mm 0.00 in/hr0.0 mm/hr 0.00 in0.0 mm
02:25 AM 12.8°F-10.7°C -3.2°F-19.6°C 48% Calm Calm -- 30.80 in1043.0 mb 0.00 in0.0 mm 0.00 in/hr0.0 mm/hr 0.00 in0.0 mm
02:24 AM 12.8°F-10.7°C -3.2°F-19.6°C 48% Calm Calm -- 30.80 in1043.0 mb 0.00 in0.0 mm 0.00 in/hr0.0 mm/hr 0.00 in0.0 mm
02:23 AM 12.8°F-10.7°C -3.2°F-19.6°C 48% Calm Calm -- 30.80 in1043.0 mb 0.00 in0.0 mm 0.00 in/hr0.0 mm/hr 0.00 in0.0 mm
02:22 AM 13.0°F-10.6°C -3.0°F-19.4°C 48% Calm Calm -- 30.80 in1043.0 mb 0.00 in0.0 mm 0.00 in/hr0.0 mm/hr 0.00 in0.0 mm
02:20 AM 13.0°F-10.6°C -3.0°F-19.4°C 48% Calm Calm -- 30.80 in1043.0 mb 0.00 in0.0 mm 0.00 in/hr0.0 mm/hr 0.00 in0.0 mm
02:18 AM 13.0°F-10.6°C -3.0°F-19.4°C 48% Calm Calm -- 30.80 in1043.0 mb 0.00 in0.0 mm 0.00 in/hr0.0 mm/hr 0.00 in0.0 mm
02:17 AM 13.0°F-10.6°C -3.0°F-19.4°C 48% Calm Calm -- 30.80 in1043.0 mb 0.00 in0.0 mm 0.00 in/hr0.0 mm/hr 0.00 in0.0 mm
02:15 AM 13.0°F-10.6°C -3.0°F-19.4°C 48% Calm Calm -- 30.80 in1043.0 mb 0.00 in0.0 mm 0.00 in/hr0.0 mm/hr 0.00 in0.0 mm
02:14 AM 13.0°F-10.6°C -3.0°F-19.4°C 48% Calm Calm -- 30.80 in1043.0 mb 0.00 in0.0 mm 0.00 in/hr0.0 mm/hr 0.00 in0.0 mm
02:12 AM 13.0°F-10.6°C -3.0°F-19.4°C 48% Calm Calm -- 30.80 in1043.0 mb 0.00 in0.0 mm 0.00 in/hr0.0 mm/hr 0.00 in0.0 mm
02:11 AM 13.0°F-10.6°C -3.0°F-19.4°C 48% Calm Calm -- 30.80 in1043.0 mb 0.00 in0.0 mm 0.00 in/hr0.0 mm/hr 0.00 in0.0 mm
02:09 AM 13.0°F-10.6°C -3.0°F-19.4°C 48% Calm Calm -- 30.80 in1043.0 mb 0.00 in0.0 mm 0.00 in/hr0.0 mm/hr 0.00 in0.0 mm
02:08 AM 16.1°F-8.8°C -0.6°F-18.1°C 47% Calm Calm -- 30.80 in1043.0 mb 0.00 in0.0 mm 0.00 in/hr0.0 mm/hr 0.00 in0.0 mm
02:06 AM 16.1°F-8.8°C -0.6°F-18.1°C 47% Calm Calm -- 30.80 in1043.0 mb 0.00 in0.0 mm 0.00 in/hr0.0 mm/hr 0.00 in0.0 mm
02:04 AM 16.1°F-8.8°C -0.6°F-18.1°C 47% Calm Calm -- 30.80 in1043.0 mb 0.00 in0.0 mm 0.00 in/hr0.0 mm/hr 0.00 in0.0 mm
02:02 AM 16.1°F-8.8°C -0.6°F-18.1°C 47% Calm Calm -- 30.80 in1043.0 mb 0.00 in0.0 mm 0.00 in/hr0.0 mm/hr 0.00 in0.0 mm
02:01 AM 16.1°F-8.8°C -0.6°F-18.1°C 47% Calm Calm -- 30.83 in1044.0 mb 0.00 in0.0 mm 0.00 in/hr0.0 mm/hr 0.00 in0.0 mm
01:59 AM 16.1°F-8.8°C -0.6°F-18.1°C 47% Calm Calm -- 30.83 in1044.0 mb 0.00 in0.0 mm 0.00 in/hr0.0 mm/hr 0.00 in0.0 mm
01:57 AM 16.1°F-8.8°C -0.6°F-18.1°C 47% Calm Calm -- 30.83 in1044.0 mb 0.00 in0.0 mm 0.00 in/hr0.0 mm/hr 0.00 in0.0 mm
01:55 AM 16.1°F-8.8°C -0.6°F-18.1°C 47% Calm Calm -- 30.83 in1044.0 mb 0.00 in0.0 mm 0.00 in/hr0.0 mm/hr 0.00 in0.0 mm
01:54 AM 16.1°F-8.8°C -0.6°F-18.1°C 47% Calm Calm -- 30.83 in1044.0 mb 0.00 in0.0 mm 0.00 in/hr0.0 mm/hr 0.00 in0.0 mm
01:53 AM 16.1°F-8.8°C -0.6°F-18.1°C 47% Calm Calm -- 30.83 in1044.0 mb 0.00 in0.0 mm 0.00 in/hr0.0 mm/hr 0.00 in0.0 mm
01:52 AM 16.1°F-8.8°C -0.6°F-18.1°C 47% Calm Calm -- 30.83 in1044.0 mb 0.00 in0.0 mm 0.00 in/hr0.0 mm/hr 0.00 in0.0 mm
01:50 AM 16.1°F-8.8°C -0.6°F-18.1°C 47% Calm Calm -- 30.83 in1044.0 mb 0.00 in0.0 mm 0.00 in/hr0.0 mm/hr 0.00 in0.0 mm
01:48 AM 16.1°F-8.8°C -0.6°F-18.1°C 47% Calm Calm -- 30.83 in1044.0 mb 0.00 in0.0 mm 0.00 in/hr0.0 mm/hr 0.00 in0.0 mm
01:47 AM 16.1°F-8.8°C -0.6°F-18.1°C 47% Calm Calm -- 30.83 in1044.0 mb 0.00 in0.0 mm 0.00 in/hr0.0 mm/hr 0.00 in0.0 mm
01:45 AM 16.1°F-8.8°C -0.6°F-18.1°C 47% Calm Calm -- 30.83 in1044.0 mb 0.00 in0.0 mm 0.00 in/hr0.0 mm/hr 0.00 in0.0 mm
01:44 AM 16.1°F-8.8°C -0.6°F-18.1°C 47% Calm Calm -- 30.83 in1044.0 mb 0.00 in0.0 mm 0.00 in/hr0.0 mm/hr 0.00 in0.0 mm
01:43 AM 16.1°F-8.8°C -0.6°F-18.1°C 47% Calm Calm -- 30.80 in1043.0 mb 0.00 in0.0 mm 0.00 in/hr0.0 mm/hr 0.00 in0.0 mm
01:41 AM 16.1°F-8.8°C -0.6°F-18.1°C 47% Calm Calm -- 30.80 in1043.0 mb 0.00 in0.0 mm 0.00 in/hr0.0 mm/hr 0.00 in0.0 mm
01:40 AM 16.1°F-8.8°C -0.6°F-18.1°C 47% Calm Calm -- 30.80 in1043.0 mb 0.00 in0.0 mm 0.00 in/hr0.0 mm/hr 0.00 in0.0 mm
01:38 AM 16.1°F-8.8°C -0.6°F-18.1°C 47% Calm Calm -- 30.80 in1043.0 mb 0.00 in0.0 mm 0.00 in/hr0.0 mm/hr 0.00 in0.0 mm
01:37 AM 16.1°F-8.8°C -0.6°F-18.1°C 47% Calm Calm -- 30.80 in1043.0 mb 0.00 in0.0 mm 0.00 in/hr0.0 mm/hr 0.00 in0.0 mm
01:36 AM 16.1°F-8.8°C -0.6°F-18.1°C 47% Calm Calm -- 30.80 in1043.0 mb 0.00 in0.0 mm 0.00 in/hr0.0 mm/hr 0.00 in0.0 mm
01:35 AM 16.1°F-8.8°C -0.6°F-18.1°C 47% Calm Calm -- 30.80 in1043.0 mb 0.00 in0.0 mm 0.00 in/hr0.0 mm/hr 0.00 in0.0 mm
01:33 AM 16.1°F-8.8°C -0.6°F-18.1°C 47% Calm Calm -- 30.80 in1043.0 mb 0.00 in0.0 mm 0.00 in/hr0.0 mm/hr 0.00 in0.0 mm
01:32 AM 16.1°F-8.8°C -0.6°F-18.1°C 47% Calm Calm -- 30.80 in1043.0 mb 0.00 in0.0 mm 0.00 in/hr0.0 mm/hr 0.00 in0.0 mm
01:31 AM 16.1°F-8.8°C -0.6°F-18.1°C 47% Calm Calm -- 30.80 in1043.0 mb 0.00 in0.0 mm 0.00 in/hr0.0 mm/hr 0.00 in0.0 mm
01:29 AM 16.1°F-8.8°C -0.6°F-18.1°C 47% Calm Calm -- 30.80 in1043.0 mb 0.00 in0.0 mm 0.00 in/hr0.0 mm/hr 0.00 in0.0 mm
01:28 AM 16.1°F-8.8°C -0.6°F-18.1°C 47% Calm Calm -- 30.80 in1043.0 mb 0.00 in0.0 mm 0.00 in/hr0.0 mm/hr 0.00 in0.0 mm
01:26 AM 16.1°F-8.8°C -0.6°F-18.1°C 47% Calm Calm -- 30.80 in1043.0 mb 0.00 in0.0 mm 0.00 in/hr0.0 mm/hr 0.00 in0.0 mm
01:25 AM 16.1°F-8.8°C -0.6°F-18.1°C 47% Calm Calm -- 30.80 in1043.0 mb 0.00 in0.0 mm 0.00 in/hr0.0 mm/hr 0.00 in0.0 mm
01:23 AM 16.1°F-8.8°C -0.6°F-18.1°C 47% Calm Calm -- 30.80 in1043.0 mb 0.00 in0.0 mm 0.00 in/hr0.0 mm/hr 0.00 in0.0 mm
01:22 AM 16.1°F-8.8°C -0.6°F-18.1°C 47% Calm Calm -- 30.80 in1043.0 mb 0.00 in0.0 mm 0.00 in/hr0.0 mm/hr 0.00 in0.0 mm
01:21 AM 16.1°F-8.8°C -0.6°F-18.1°C 47% Calm Calm -- 30.80 in1043.0 mb 0.00 in0.0 mm 0.00 in/hr0.0 mm/hr 0.00 in0.0 mm
01:19 AM 16.1°F-8.8°C -0.6°F-18.1°C 47% Calm Calm -- 30.80 in1043.0 mb 0.00 in0.0 mm 0.00 in/hr0.0 mm/hr 0.00 in0.0 mm
01:18 AM 16.1°F-8.8°C -0.6°F-18.1°C 47% Calm Calm -- 30.80 in1043.0 mb 0.00 in0.0 mm 0.00 in/hr0.0 mm/hr 0.00 in0.0 mm
01:16 AM 16.1°F-8.8°C -0.6°F-18.1°C 47% Calm Calm -- 30.80 in1043.0 mb 0.00 in0.0 mm 0.00 in/hr0.0 mm/hr 0.00 in0.0 mm
01:15 AM 16.1°F-8.8°C -0.6°F-18.1°C 47% Calm Calm -- 30.80 in1043.0 mb 0.00 in0.0 mm 0.00 in/hr0.0 mm/hr 0.00 in0.0 mm
01:14 AM 16.1°F-8.8°C -0.6°F-18.1°C 47% Calm Calm -- 30.80 in1043.0 mb 0.00 in0.0 mm 0.00 in/hr0.0 mm/hr 0.00 in0.0 mm
01:12 AM 16.1°F-8.8°C -0.6°F-18.1°C 47% Calm Calm -- 30.80 in1043.0 mb 0.00 in0.0 mm 0.00 in/hr0.0 mm/hr 0.00 in0.0 mm
01:10 AM 16.1°F-8.8°C -0.6°F-18.1°C 47% Calm Calm -- 30.80 in1043.0 mb 0.00 in0.0 mm 0.00 in/hr0.0 mm/hr 0.00 in0.0 mm
01:09 AM 16.1°F-8.8°C -0.6°F-18.1°C 47% Calm Calm -- 30.80 in1043.0 mb 0.00 in0.0 mm 0.00 in/hr0.0 mm/hr 0.00 in0.0 mm
01:08 AM 16.1°F-8.8°C -0.6°F-18.1°C 47% Calm Calm -- 30.80 in1043.0 mb 0.00 in0.0 mm 0.00 in/hr0.0 mm/hr 0.00 in0.0 mm
01:06 AM 16.1°F-8.8°C -0.6°F-18.1°C 47% Calm Calm -- 30.80 in1043.0 mb 0.00 in0.0 mm 0.00 in/hr0.0 mm/hr 0.00 in0.0 mm
01:05 AM 16.1°F-8.8°C -0.6°F-18.1°C 47% Calm Calm -- 30.80 in1043.0 mb 0.00 in0.0 mm 0.00 in/hr0.0 mm/hr 0.00 in0.0 mm
01:04 AM 16.1°F-8.8°C -0.6°F-18.1°C 47% Calm Calm -- 30.80 in1043.0 mb 0.00 in0.0 mm 0.00 in/hr0.0 mm/hr 0.00 in0.0 mm
01:02 AM 16.1°F-8.8°C -0.6°F-18.1°C 47% Calm Calm -- 30.80 in1043.0 mb 0.00 in0.0 mm 0.00 in/hr0.0 mm/hr 0.00 in0.0 mm
01:01 AM 16.1°F-8.8°C -0.6°F-18.1°C 47% Calm Calm -- 30.80 in1043.0 mb 0.00 in0.0 mm 0.00 in/hr0.0 mm/hr 0.00 in0.0 mm
12:59 AM 16.1°F-8.8°C -0.6°F-18.1°C 47% Calm Calm -- 30.80 in1043.0 mb 0.00 in0.0 mm 0.00 in/hr0.0 mm/hr 0.00 in0.0 mm
12:58 AM 16.1°F-8.8°C -0.6°F-18.1°C 47% Calm Calm -- 30.80 in1043.0 mb 0.00 in0.0 mm 0.00 in/hr0.0 mm/hr 0.00 in0.0 mm
12:57 AM 16.1°F-8.8°C -0.6°F-18.1°C 47% Calm Calm -- 30.80 in1043.0 mb 0.00 in0.0 mm 0.00 in/hr0.0 mm/hr 0.00 in0.0 mm
12:55 AM 16.1°F-8.8°C -0.6°F-18.1°C 47% Calm Calm -- 30.80 in1043.0 mb 0.00 in0.0 mm 0.00 in/hr0.0 mm/hr 0.00 in0.0 mm
12:54 AM 16.1°F-8.8°C -0.6°F-18.1°C 47% Calm Calm -- 30.80 in1043.0 mb 0.00 in0.0 mm 0.00 in/hr0.0 mm/hr 0.00 in0.0 mm
12:52 AM 16.1°F-8.8°C -0.6°F-18.1°C 47% Calm Calm -- 30.80 in1043.0 mb 0.00 in0.0 mm 0.00 in/hr0.0 mm/hr 0.00 in0.0 mm
12:51 AM 16.1°F-8.8°C -0.6°F-18.1°C 47% Calm Calm -- 30.80 in1043.0 mb 0.00 in0.0 mm 0.00 in/hr0.0 mm/hr 0.00 in0.0 mm
12:50 AM 16.1°F-8.8°C -0.6°F-18.1°C 47% Calm Calm -- 30.80 in1043.0 mb 0.00 in0.0 mm 0.00 in/hr0.0 mm/hr 0.00 in0.0 mm
12:48 AM 16.1°F-8.8°C -0.6°F-18.1°C 47% Calm Calm -- 30.80 in1043.0 mb 0.00 in0.0 mm 0.00 in/hr0.0 mm/hr 0.00 in0.0 mm
12:47 AM 16.1°F-8.8°C -0.6°F-18.1°C 47% Calm Calm -- 30.80 in1043.0 mb 0.00 in0.0 mm 0.00 in/hr0.0 mm/hr 0.00 in0.0 mm
12:46 AM 16.1°F-8.8°C -0.6°F-18.1°C 47% Calm Calm -- 30.80 in1043.0 mb 0.00 in0.0 mm 0.00 in/hr0.0 mm/hr 0.00 in0.0 mm
12:44 AM 16.1°F-8.8°C -0.6°F-18.1°C 47% Calm Calm -- 30.80 in1043.0 mb 0.00 in0.0 mm 0.00 in/hr0.0 mm/hr 0.00 in0.0 mm
12:43 AM 16.1°F-8.8°C -0.6°F-18.1°C 47% Calm Calm -- 30.80 in1043.0 mb 0.00 in0.0 mm 0.00 in/hr0.0 mm/hr 0.00 in0.0 mm
12:41 AM 16.1°F-8.8°C -0.6°F-18.1°C 47% Calm Calm -- 30.80 in1043.0 mb 0.00 in0.0 mm 0.00 in/hr0.0 mm/hr 0.00 in0.0 mm
12:40 AM 16.1°F-8.8°C -0.6°F-18.1°C 47% Calm Calm -- 30.80 in1043.0 mb 0.00 in0.0 mm 0.00 in/hr0.0 mm/hr 0.00 in0.0 mm
12:38 AM 16.1°F-8.8°C -0.6°F-18.1°C 47% Calm Calm -- 30.80 in1043.0 mb 0.00 in0.0 mm 0.00 in/hr0.0 mm/hr 0.00 in0.0 mm
12:37 AM 16.1°F-8.8°C -0.6°F-18.1°C 47% Calm Calm -- 30.80 in1043.0 mb 0.00 in0.0 mm 0.00 in/hr0.0 mm/hr 0.00 in0.0 mm
12:36 AM 16.1°F-8.8°C -0.6°F-18.1°C 47% Calm Calm -- 30.80 in1043.0 mb 0.00 in0.0 mm 0.00 in/hr0.0 mm/hr 0.00 in0.0 mm
12:34 AM 16.1°F-8.8°C -0.6°F-18.1°C 47% Calm Calm -- 30.80 in1043.0 mb 0.00 in0.0 mm 0.00 in/hr0.0 mm/hr 0.00 in0.0 mm
12:33 AM 16.1°F-8.8°C -0.6°F-18.1°C 47% Calm Calm -- 30.80 in1043.0 mb 0.00 in0.0 mm 0.00 in/hr0.0 mm/hr 0.00 in0.0 mm
12:31 AM 16.1°F-8.8°C -0.6°F-18.1°C 47% Calm Calm -- 30.80 in1043.0 mb 0.00 in0.0 mm 0.00 in/hr0.0 mm/hr 0.00 in0.0 mm
12:29 AM 16.1°F-8.8°C -0.6°F-18.1°C 47% Calm Calm -- 30.80 in1043.0 mb 0.00 in0.0 mm 0.00 in/hr0.0 mm/hr 0.00 in0.0 mm
12:27 AM 16.1°F-8.8°C -0.6°F-18.1°C 47% Calm Calm -- 30.80 in1043.0 mb 0.00 in0.0 mm 0.00 in/hr0.0 mm/hr 0.00 in0.0 mm
12:26 AM 16.1°F-8.8°C -0.6°F-18.1°C 47% Calm Calm -- 30.80 in1043.0 mb 0.00 in0.0 mm 0.00 in/hr0.0 mm/hr 0.00 in0.0 mm
12:25 AM 16.1°F-8.8°C -0.6°F-18.1°C 47% Calm Calm -- 30.80 in1043.0 mb 0.00 in0.0 mm 0.00 in/hr0.0 mm/hr 0.00 in0.0 mm
12:24 AM 16.1°F-8.8°C -0.6°F-18.1°C 47% Calm Calm -- 30.80 in1043.0 mb 0.00 in0.0 mm 0.00 in/hr0.0 mm/hr 0.00 in0.0 mm
12:22 AM 16.1°F-8.8°C -0.6°F-18.1°C 47% Calm Calm -- 30.80 in1043.0 mb 0.00 in0.0 mm 0.00 in/hr0.0 mm/hr 0.00 in0.0 mm
12:20 AM 16.1°F-8.8°C -0.6°F-18.1°C 47% Calm Calm -- 30.80 in1043.0 mb 0.00 in0.0 mm 0.00 in/hr0.0 mm/hr 0.00 in0.0 mm
12:19 AM 16.1°F-8.8°C -0.6°F-18.1°C 47% Calm Calm -- 30.80 in1043.0 mb 0.00 in0.0 mm 0.00 in/hr0.0 mm/hr 0.00 in0.0 mm
12:18 AM 16.1°F-8.8°C -0.6°F-18.1°C 47% Calm Calm -- 30.80 in1043.0 mb 0.00 in0.0 mm 0.00 in/hr0.0 mm/hr 0.00 in0.0 mm
12:16 AM 16.1°F-8.8°C -0.6°F-18.1°C 47% Calm Calm -- 30.80 in1043.0 mb 0.00 in0.0 mm 0.00 in/hr0.0 mm/hr 0.00 in0.0 mm
12:15 AM 16.1°F-8.8°C -0.6°F-18.1°C 47% Calm Calm -- 30.80 in1043.0 mb 0.00 in0.0 mm 0.00 in/hr0.0 mm/hr 0.00 in0.0 mm
12:13 AM 16.1°F-8.8°C -0.6°F-18.1°C 47% Calm Calm -- 30.80 in1043.0 mb 0.00 in0.0 mm 0.00 in/hr0.0 mm/hr 0.00 in0.0 mm
12:12 AM 16.1°F-8.8°C -0.6°F-18.1°C 47% Calm Calm -- 30.80 in1043.0 mb 0.00 in0.0 mm 0.00 in/hr0.0 mm/hr 0.00 in0.0 mm
12:10 AM 16.1°F-8.8°C -0.6°F-18.1°C 47% Calm Calm -- 30.80 in1043.0 mb 0.00 in0.0 mm 0.00 in/hr0.0 mm/hr 0.00 in0.0 mm
12:09 AM 16.1°F-8.8°C -0.6°F-18.1°C 47% Calm Calm -- 30.80 in1043.0 mb 0.00 in0.0 mm 0.00 in/hr0.0 mm/hr 0.00 in0.0 mm
12:08 AM 16.1°F-8.8°C -0.6°F-18.1°C 47% Calm Calm -- 30.80 in1043.0 mb 0.00 in0.0 mm 0.00 in/hr0.0 mm/hr 0.00 in0.0 mm
12:06 AM 16.1°F-8.8°C -0.6°F-18.1°C 47% Calm Calm -- 30.80 in1043.0 mb 0.00 in0.0 mm 0.00 in/hr0.0 mm/hr 0.00 in0.0 mm
12:05 AM 16.1°F-8.8°C -0.6°F-18.1°C 47% Calm Calm -- 30.80 in1043.0 mb 0.00 in0.0 mm 0.00 in/hr0.0 mm/hr 0.00 in0.0 mm
12:03 AM 16.1°F-8.8°C -0.6°F-18.1°C 47% Calm Calm -- 30.80 in1043.0 mb 0.00 in0.0 mm 0.00 in/hr0.0 mm/hr 0.00 in0.0 mm
12:02 AM 16.1°F-8.8°C -0.6°F-18.1°C 47% Calm Calm -- 30.80 in1043.0 mb 0.00 in0.0 mm 0.00 in/hr0.0 mm/hr 0.00 in0.0 mm
12:01 AM 16.1°F-8.8°C -0.6°F-18.1°C 47% Calm Calm -- 30.80 in1043.0 mb 0.00 in0.0 mm 0.00 in/hr0.0 mm/hr 0.00 in0.0 mm